DAL69 FACT-NZAA
Flight info
| Callsign | DAL69 |
|---|---|
| Flight time | 12h 30m |
| Altitude | 40000 |
| Route | CTV DCT OKTED DCT 37S020E DCT 39S021E 41S022E 44S024E 47S026E 51S029E 53S031E 55S033E 57S035E 59S037E 61S040E 63S044E 65S048E 67S053E 69S059E 71S069E 72S077E 73S096E 73S100E 72S115E 71S123E 69S133E 67S140E 65S145E 64S147E 63S149E 60S154E 57S158E 55S160E 53S162E 51S164E 49S166E 47S168E DCT AMVIX DCT BIMAX H264 SW Y477 CH Y175 OMKUN Y655 POKOM Q277 DAVEE |
| Aircraft | B78X/H-SDE1E2E3FGHIJ2J3J4J5M1RWXY/LB1D1 |
Departure
| Time | 2026-05-04 10:25 |
|---|---|
| Airport | Cape Town International Airport (FACT) |
Arrival
| Time | 2026-05-04 22:55 |
|---|---|
| Airport | Auckland International Airport (NZAA) |
| Time | Latitude | Longitude | Altitude | Speed | Heading |
|---|---|---|---|---|---|
| 2026-05-04 09:58 | -33.97047 | 18.59836 | 164 ft | 0 kts | 255° |
| 2026-05-04 10:02 | -33.97035 | 18.59878 | 164 ft | 3 kts | 234° |
| 2026-05-04 10:04 | -33.96979 | 18.59910 | 164 ft | 0 kts | 178° |
| 2026-05-04 10:05 | -33.96980 | 18.59910 | 164 ft | 0 kts | 178° |
| 2026-05-04 10:10 | -33.96981 | 18.59910 | 164 ft | 1 kts | 178° |
| 2026-05-04 10:10 | -33.96995 | 18.59910 | 164 ft | 3 kts | 177° |
| 2026-05-04 10:11 | -33.97038 | 18.59914 | 164 ft | 11 kts | 174° |
| 2026-05-04 10:11 | -33.97151 | 18.59939 | 164 ft | 17 kts | 168° |
| 2026-05-04 10:11 | -33.97270 | 18.59980 | 164 ft | 16 kts | 161° |
| 2026-05-04 10:11 | -33.97381 | 18.60027 | 164 ft | 18 kts | 161° |
| 2026-05-04 10:12 | -33.97500 | 18.60076 | 164 ft | 17 kts | 161° |
| 2026-05-04 10:12 | -33.97620 | 18.60117 | 165 ft | 17 kts | 167° |
| 2026-05-04 10:12 | -33.97707 | 18.60137 | 164 ft | 12 kts | 171° |
| 2026-05-04 10:12 | -33.97821 | 18.60163 | 164 ft | 19 kts | 165° |
| 2026-05-04 10:13 | -33.97910 | 18.60199 | 164 ft | 18 kts | 158° |
| 2026-05-04 10:13 | -33.97925 | 18.60207 | 164 ft | 0 kts | 158° |
| 2026-05-04 10:16 | -33.98420 | 18.60437 | 164 ft | 15 kts | 159° |
| 2026-05-04 10:16 | -33.98516 | 18.60481 | 164 ft | 16 kts | 159° |
| 2026-05-04 10:16 | -33.98619 | 18.60530 | 164 ft | 13 kts | 159° |
| 2026-05-04 10:16 | -33.98625 | 18.60533 | 164 ft | 0 kts | 159° |
| 2026-05-04 10:19 | -33.98715 | 18.60864 | 164 ft | 0 kts | 351° |
| 2026-05-04 10:19 | -33.98714 | 18.60864 | 164 ft | 0 kts | 351° |
| 2026-05-04 10:22 | -33.98713 | 18.60864 | 164 ft | 1 kts | 351° |
| 2026-05-04 10:22 | -33.98514 | 18.60806 | 164 ft | 68 kts | 346° |
| 2026-05-04 10:23 | -33.97814 | 18.60582 | 164 ft | 138 kts | 345° |
| 2026-05-04 10:23 | -33.96704 | 18.60234 | 166 ft | 189 kts | 345° |
| 2026-05-04 10:25 | -33.89016 | 18.55944 | 3196 ft | 205 kts | 315° |
| 2026-05-04 10:25 | -33.87962 | 18.54733 | 3525 ft | 207 kts | 313° |
| 2026-05-04 10:25 | -33.86948 | 18.53557 | 4001 ft | 203 kts | 313° |
| 2026-05-04 10:25 | -33.85943 | 18.52384 | 4491 ft | 200 kts | 313° |
| 2026-05-04 10:26 | -33.84727 | 18.51465 | 4870 ft | 214 kts | 334° |
| 2026-05-04 10:26 | -33.83257 | 18.51432 | 5356 ft | 215 kts | 359° |
| 2026-05-04 10:26 | -33.81805 | 18.51776 | 5994 ft | 213 kts | 6° |
| 2026-05-04 10:26 | -33.80351 | 18.52188 | 6478 ft | 216 kts | 9° |
| 2026-05-04 10:27 | -33.78890 | 18.52653 | 6993 ft | 218 kts | 10° |
| 2026-05-04 10:27 | -33.77369 | 18.53158 | 7151 ft | 240 kts | 11° |
| 2026-05-04 10:27 | -33.75694 | 18.53734 | 7380 ft | 253 kts | 12° |
| 2026-05-04 10:27 | -33.73984 | 18.54340 | 7901 ft | 259 kts | 12° |
| 2026-05-04 10:28 | -33.72237 | 18.54962 | 8406 ft | 265 kts | 12° |
| 2026-05-04 10:28 | -33.70445 | 18.55603 | 8899 ft | 270 kts | 12° |
| 2026-05-04 10:28 | -33.68633 | 18.56254 | 9412 ft | 273 kts | 12° |
| 2026-05-04 10:28 | -33.66806 | 18.56907 | 9922 ft | 274 kts | 11° |
| 2026-05-04 10:29 | -33.64977 | 18.57565 | 10428 ft | 274 kts | 11° |
| 2026-05-04 10:29 | -33.63153 | 18.58220 | 10926 ft | 271 kts | 10° |
| 2026-05-04 10:29 | -33.61380 | 18.58858 | 11421 ft | 268 kts | 9° |
| 2026-05-04 10:29 | -33.59569 | 18.59503 | 11692 ft | 278 kts | 9° |
| 2026-05-04 10:30 | -33.57668 | 18.60171 | 11872 ft | 292 kts | 9° |
| 2026-05-04 10:30 | -33.55650 | 18.60885 | 12195 ft | 302 kts | 9° |
| 2026-05-04 10:30 | -33.53647 | 18.61602 | 12668 ft | 305 kts | 9° |
| 2026-05-04 10:30 | -33.51618 | 18.62442 | 13095 ft | 317 kts | 15° |
| 2026-05-04 10:31 | -33.49784 | 18.64082 | 13425 ft | 343 kts | 37° |
| 2026-05-04 10:31 | -33.48544 | 18.66545 | 13961 ft | 361 kts | 58° |
| 2026-05-04 10:32 | -33.57077 | 18.80109 | 16335 ft | 396 kts | 178° |
| 2026-05-04 10:33 | -33.59792 | 18.80489 | 16678 ft | 401 kts | 180° |
| 2026-05-04 10:33 | -33.62586 | 18.80831 | 16982 ft | 406 kts | 181° |
| 2026-05-04 10:33 | -33.65440 | 18.81174 | 17350 ft | 410 kts | 181° |
| 2026-05-04 10:33 | -33.68255 | 18.81516 | 17691 ft | 414 kts | 181° |
| 2026-05-04 10:34 | -33.71130 | 18.81870 | 18066 ft | 417 kts | 181° |
| 2026-05-04 10:34 | -33.74028 | 18.82232 | 18436 ft | 419 kts | 181° |
| 2026-05-04 10:34 | -33.76946 | 18.82603 | 18826 ft | 422 kts | 181° |
| 2026-05-04 10:34 | -33.79858 | 18.82978 | 19188 ft | 424 kts | 181° |
| 2026-05-04 10:35 | -33.82789 | 18.83360 | 19518 ft | 428 kts | 181° |
| 2026-05-04 10:35 | -33.85790 | 18.83758 | 19846 ft | 431 kts | 181° |
| 2026-05-04 10:35 | -33.88783 | 18.84160 | 20180 ft | 434 kts | 181° |
| 2026-05-04 10:35 | -33.91797 | 18.84571 | 20527 ft | 437 kts | 181° |
| 2026-05-04 10:36 | -33.94816 | 18.84990 | 20881 ft | 439 kts | 181° |
| 2026-05-04 10:36 | -33.97862 | 18.85420 | 21253 ft | 440 kts | 181° |
| 2026-05-04 10:36 | -34.00914 | 18.85857 | 21572 ft | 443 kts | 181° |
| 2026-05-04 10:36 | -34.03992 | 18.86302 | 21838 ft | 447 kts | 181° |
| 2026-05-04 10:37 | -34.07092 | 18.86757 | 22127 ft | 450 kts | 181° |
| 2026-05-04 10:37 | -34.10177 | 18.87218 | 22448 ft | 453 kts | 181° |
| 2026-05-04 10:37 | -34.13310 | 18.87694 | 22776 ft | 454 kts | 180° |
| 2026-05-04 10:37 | -34.16460 | 18.88180 | 23090 ft | 457 kts | 180° |
| 2026-05-04 10:39 | -34.35531 | 18.93180 | 24816 ft | 481 kts | 168° |
| 2026-05-04 10:39 | -34.38719 | 18.94442 | 25047 ft | 484 kts | 167° |
| 2026-05-04 10:39 | -34.41940 | 18.95719 | 25323 ft | 486 kts | 167° |
| 2026-05-04 10:40 | -34.45122 | 18.96975 | 25597 ft | 488 kts | 167° |
| 2026-05-04 10:40 | -34.48366 | 18.98251 | 25878 ft | 490 kts | 168° |
| 2026-05-04 10:40 | -34.51610 | 18.99523 | 26130 ft | 492 kts | 168° |
| 2026-05-04 10:40 | -34.54860 | 19.00794 | 26351 ft | 495 kts | 167° |
| 2026-05-04 10:41 | -34.58156 | 19.02086 | 26590 ft | 497 kts | 168° |
| 2026-05-04 10:41 | -34.61452 | 19.03380 | 26882 ft | 498 kts | 167° |
| 2026-05-04 10:41 | -34.64762 | 19.04678 | 27090 ft | 501 kts | 167° |
| 2026-05-04 10:41 | -34.68082 | 19.05983 | 27327 ft | 502 kts | 167° |
| 2026-05-04 10:42 | -34.71419 | 19.07296 | 27563 ft | 504 kts | 167° |
| 2026-05-04 10:42 | -34.74756 | 19.08609 | 27791 ft | 506 kts | 167° |
| 2026-05-04 10:42 | -34.78120 | 19.09934 | 28023 ft | 508 kts | 167° |
| 2026-05-04 10:42 | -34.81492 | 19.11264 | 28228 ft | 510 kts | 167° |
| 2026-05-04 10:43 | -34.84838 | 19.12584 | 28456 ft | 512 kts | 167° |
| 2026-05-04 10:44 | -35.08941 | 19.22130 | 29791 ft | 527 kts | 167° |
| 2026-05-04 10:45 | -35.12424 | 19.23516 | 29993 ft | 528 kts | 167° |
| 2026-05-04 10:45 | -35.15926 | 19.24910 | 30190 ft | 530 kts | 167° |
| 2026-05-04 10:45 | -35.19439 | 19.26310 | 30413 ft | 530 kts | 167° |
| 2026-05-04 10:45 | -35.22959 | 19.27713 | 30632 ft | 531 kts | 167° |
| 2026-05-04 10:46 | -35.26431 | 19.29098 | 30827 ft | 532 kts | 167° |
| 2026-05-04 10:46 | -35.29963 | 19.30509 | 31006 ft | 534 kts | 167° |
| 2026-05-04 10:46 | -35.33494 | 19.31919 | 31158 ft | 536 kts | 167° |
| 2026-05-04 10:46 | -35.37052 | 19.33341 | 31332 ft | 538 kts | 168° |
| 2026-05-04 10:47 | -35.40616 | 19.34769 | 31559 ft | 538 kts | 168° |
| 2026-05-04 10:47 | -35.44178 | 19.36198 | 31743 ft | 540 kts | 168° |
| 2026-05-04 10:47 | -35.47750 | 19.37632 | 31959 ft | 540 kts | 168° |
| 2026-05-04 10:47 | -35.51329 | 19.39068 | 32154 ft | 541 kts | 168° |
| 2026-05-04 10:49 | -35.76582 | 19.49246 | 33374 ft | 549 kts | 168° |
| 2026-05-04 10:49 | -35.80221 | 19.50719 | 33578 ft | 549 kts | 168° |
| 2026-05-04 10:50 | -35.83851 | 19.52198 | 33797 ft | 549 kts | 168° |
| 2026-05-04 10:51 | -36.09363 | 19.62551 | 34899 ft | 558 kts | 168° |
| 2026-05-04 10:52 | -36.13062 | 19.64063 | 35022 ft | 560 kts | 168° |
| 2026-05-04 10:52 | -36.16783 | 19.65585 | 35162 ft | 562 kts | 168° |
| 2026-05-04 10:52 | -36.20501 | 19.67106 | 35314 ft | 563 kts | 168° |
| 2026-05-04 10:54 | -36.46596 | 19.77821 | 36479 ft | 568 kts | 167° |
| 2026-05-04 10:54 | -36.49131 | 19.78866 | 36581 ft | 568 kts | 167° |
| 2026-05-04 10:56 | -36.75462 | 19.89766 | 37848 ft | 568 kts | 166° |
| 2026-05-04 10:56 | -36.79210 | 19.91324 | 38075 ft | 567 kts | 166° |
| 2026-05-04 10:56 | -36.82950 | 19.92880 | 38291 ft | 565 kts | 166° |
| 2026-05-04 10:57 | -36.86669 | 19.94428 | 38485 ft | 564 kts | 166° |
| 2026-05-04 10:57 | -36.90397 | 19.95983 | 38687 ft | 562 kts | 166° |
| 2026-05-04 10:57 | -36.94105 | 19.97532 | 38868 ft | 561 kts | 165° |
| 2026-05-04 10:57 | -36.97784 | 19.99145 | 39036 ft | 561 kts | 164° |
| 2026-05-04 10:58 | -37.01448 | 20.00810 | 39212 ft | 559 kts | 163° |
| 2026-05-04 10:58 | -37.05087 | 20.02505 | 39320 ft | 560 kts | 163° |
| 2026-05-04 10:58 | -37.08729 | 20.04238 | 39432 ft | 560 kts | 162° |
| 2026-05-04 10:58 | -37.12366 | 20.05997 | 39556 ft | 559 kts | 162° |
| 2026-05-04 10:59 | -37.16000 | 20.07768 | 39676 ft | 559 kts | 162° |
| 2026-05-04 10:59 | -37.23182 | 20.11284 | 39877 ft | 557 kts | 162° |
| 2026-05-04 11:00 | -37.30396 | 20.14817 | 39962 ft | 557 kts | 162° |
| 2026-05-04 11:02 | -37.59508 | 20.29135 | 39982 ft | 567 kts | 162° |
| 2026-05-04 11:05 | -38.15621 | 20.57081 | 39973 ft | 586 kts | 162° |
| 2026-05-04 11:06 | -38.23213 | 20.60897 | 39985 ft | 586 kts | 161° |
| 2026-05-04 11:06 | -38.30753 | 20.64698 | 39972 ft | 587 kts | 162° |
| 2026-05-04 11:10 | -38.83910 | 20.91724 | 39980 ft | 588 kts | 161° |
| 2026-05-04 11:12 | -39.14378 | 21.06979 | 39979 ft | 586 kts | 163° |
| 2026-05-04 11:12 | -39.21970 | 21.10679 | 39981 ft | 587 kts | 163° |
| 2026-05-04 11:13 | -39.29615 | 21.14409 | 39972 ft | 587 kts | 163° |
| 2026-05-04 11:13 | -39.37254 | 21.18148 | 39985 ft | 586 kts | 163° |
| 2026-05-04 11:14 | -39.44883 | 21.21891 | 39973 ft | 587 kts | 163° |
| 2026-05-04 11:16 | -39.75378 | 21.36945 | 39984 ft | 587 kts | 163° |
| 2026-05-04 11:16 | -39.83020 | 21.40739 | 39975 ft | 588 kts | 162° |
| 2026-05-04 11:17 | -39.90681 | 21.44552 | 39977 ft | 589 kts | 162° |
| 2026-05-04 11:19 | -40.21185 | 21.59829 | 39972 ft | 588 kts | 162° |
| 2026-05-04 11:19 | -40.28868 | 21.63698 | 39982 ft | 588 kts | 162° |
| 2026-05-04 11:20 | -40.36451 | 21.67528 | 39981 ft | 587 kts | 162° |
| 2026-05-04 11:20 | -40.44065 | 21.71383 | 39972 ft | 586 kts | 162° |
| 2026-05-04 11:22 | -40.74383 | 21.86825 | 39984 ft | 581 kts | 162° |
| 2026-05-04 11:23 | -40.81872 | 21.90663 | 39972 ft | 579 kts | 162° |
| 2026-05-04 11:25 | -41.07875 | 22.05007 | 39986 ft | 580 kts | 159° |
| 2026-05-04 11:25 | -41.15182 | 22.09585 | 39972 ft | 581 kts | 158° |
| 2026-05-04 11:27 | -41.47802 | 22.30453 | 39979 ft | 576 kts | 158° |
| 2026-05-04 11:28 | -41.54991 | 22.35077 | 39976 ft | 575 kts | 158° |
| 2026-05-04 11:28 | -41.62197 | 22.39723 | 39976 ft | 575 kts | 158° |
| 2026-05-04 11:29 | -41.69408 | 22.44385 | 39938 ft | 575 kts | 158° |
| 2026-05-04 11:29 | -41.76613 | 22.49055 | 39916 ft | 574 kts | 158° |
| 2026-05-04 11:33 | -42.26824 | 22.81927 | 39916 ft | 574 kts | 158° |
| 2026-05-04 11:33 | -42.34020 | 22.86686 | 39907 ft | 576 kts | 158° |
| 2026-05-04 11:34 | -42.41218 | 22.91458 | 39910 ft | 576 kts | 158° |
| 2026-05-04 11:34 | -42.48411 | 22.96241 | 39915 ft | 575 kts | 158° |
| 2026-05-04 11:35 | -42.55565 | 23.01010 | 39904 ft | 575 kts | 158° |
| 2026-05-04 11:35 | -42.62735 | 23.05800 | 39915 ft | 575 kts | 158° |
| 2026-05-04 11:36 | -42.69922 | 23.10613 | 39907 ft | 576 kts | 158° |
| 2026-05-04 11:36 | -42.77105 | 23.15437 | 39907 ft | 575 kts | 158° |
| 2026-05-04 11:37 | -42.84269 | 23.20263 | 39916 ft | 575 kts | 158° |
| 2026-05-04 11:37 | -42.91443 | 23.25106 | 39904 ft | 574 kts | 158° |
| 2026-05-04 11:38 | -42.98583 | 23.29940 | 39915 ft | 573 kts | 158° |
| 2026-05-04 11:38 | -43.05744 | 23.34798 | 39910 ft | 573 kts | 158° |
| 2026-05-04 11:39 | -43.12901 | 23.39668 | 39908 ft | 573 kts | 158° |
| 2026-05-04 11:41 | -43.37778 | 23.56699 | 39917 ft | 570 kts | 158° |
| 2026-05-04 11:41 | -43.44847 | 23.61566 | 39903 ft | 570 kts | 158° |
| 2026-05-04 11:42 | -43.51931 | 23.66457 | 39914 ft | 569 kts | 158° |
| 2026-05-04 11:42 | -43.59004 | 23.71352 | 39909 ft | 569 kts | 157° |
| 2026-05-04 11:43 | -43.64922 | 23.75458 | 39904 ft | 569 kts | 157° |
| 2026-05-04 11:43 | -43.72017 | 23.80391 | 39915 ft | 569 kts | 158° |
| 2026-05-04 11:44 | -43.79037 | 23.85288 | 39904 ft | 568 kts | 157° |
| 2026-05-04 11:44 | -43.86090 | 23.90221 | 39913 ft | 568 kts | 157° |
| 2026-05-04 11:45 | -43.93145 | 23.95168 | 39911 ft | 569 kts | 157° |
| 2026-05-04 11:45 | -44.00255 | 23.99973 | 39902 ft | 567 kts | 159° |
| 2026-05-04 11:46 | -44.07408 | 24.04629 | 39916 ft | 567 kts | 160° |
| 2026-05-04 11:46 | -44.14582 | 24.09192 | 39905 ft | 567 kts | 160° |
| 2026-05-04 11:47 | -44.21765 | 24.13735 | 39911 ft | 566 kts | 160° |
| 2026-05-04 11:47 | -44.28928 | 24.18277 | 39914 ft | 566 kts | 160° |
| 2026-05-04 11:48 | -44.36063 | 24.22816 | 39903 ft | 565 kts | 160° |
| 2026-05-04 11:48 | -44.43090 | 24.27298 | 39913 ft | 565 kts | 160° |
| 2026-05-04 11:49 | -44.50232 | 24.31869 | 39909 ft | 564 kts | 160° |
| 2026-05-04 11:49 | -44.57373 | 24.36452 | 39907 ft | 564 kts | 160° |
| 2026-05-04 11:50 | -44.64480 | 24.41024 | 39916 ft | 563 kts | 160° |
| 2026-05-04 11:50 | -44.71621 | 24.45630 | 39904 ft | 563 kts | 160° |
| 2026-05-04 11:51 | -44.78713 | 24.50218 | 39913 ft | 563 kts | 160° |
| 2026-05-04 11:51 | -44.85857 | 24.54851 | 39911 ft | 563 kts | 160° |
| 2026-05-04 11:52 | -44.92840 | 24.59393 | 39904 ft | 562 kts | 160° |
| 2026-05-04 11:52 | -45.00027 | 24.64079 | 39917 ft | 561 kts | 160° |
| 2026-05-04 11:53 | -45.07087 | 24.68695 | 39904 ft | 561 kts | 160° |
| 2026-05-04 11:53 | -45.14165 | 24.73337 | 39914 ft | 560 kts | 160° |
| 2026-05-04 11:55 | -45.42455 | 24.92015 | 39904 ft | 560 kts | 160° |
| 2026-05-04 11:56 | -45.49474 | 24.96682 | 39913 ft | 559 kts | 160° |
| 2026-05-04 11:56 | -45.56521 | 25.01379 | 39913 ft | 560 kts | 160° |
| 2026-05-04 11:57 | -45.63597 | 25.06111 | 39906 ft | 559 kts | 160° |
| 2026-05-04 11:57 | -45.70619 | 25.10819 | 39918 ft | 559 kts | 160° |
| 2026-05-04 11:58 | -45.77657 | 25.15546 | 39903 ft | 560 kts | 160° |
| 2026-05-04 11:58 | -45.84712 | 25.20304 | 39915 ft | 560 kts | 160° |
| 2026-05-04 11:59 | -45.91750 | 25.25064 | 39909 ft | 560 kts | 160° |
| 2026-05-04 11:59 | -45.98763 | 25.29820 | 39908 ft | 559 kts | 160° |
| 2026-05-04 12:00 | -46.05834 | 25.34629 | 39923 ft | 554 kts | 160° |
| 2026-05-04 12:00 | -46.12800 | 25.39378 | 39904 ft | 555 kts | 160° |
| 2026-05-04 12:01 | -46.19764 | 25.44136 | 39914 ft | 556 kts | 160° |
| 2026-05-04 12:02 | -46.44241 | 25.60981 | 39913 ft | 556 kts | 160° |
| 2026-05-04 12:03 | -46.51191 | 25.65792 | 39877 ft | 557 kts | 160° |
| 2026-05-04 12:03 | -46.58165 | 25.70635 | 39853 ft | 555 kts | 160° |
| 2026-05-04 12:04 | -46.65143 | 25.75496 | 39846 ft | 555 kts | 160° |
| 2026-05-04 12:04 | -46.72084 | 25.80346 | 39860 ft | 554 kts | 160° |
| 2026-05-04 12:05 | -46.79040 | 25.85218 | 39847 ft | 554 kts | 160° |
| 2026-05-04 12:05 | -46.85976 | 25.90092 | 39855 ft | 553 kts | 160° |
| 2026-05-04 12:06 | -46.92860 | 25.94942 | 39856 ft | 552 kts | 160° |
| 2026-05-04 12:06 | -46.99520 | 25.99597 | 39847 ft | 550 kts | 160° |
| 2026-05-04 12:07 | -47.06460 | 26.04411 | 39860 ft | 551 kts | 160° |
| 2026-05-04 12:07 | -47.13389 | 26.09197 | 39847 ft | 552 kts | 160° |
| 2026-05-04 12:08 | -47.20352 | 26.14011 | 39858 ft | 551 kts | 161° |
| 2026-05-04 12:08 | -47.27274 | 26.18808 | 39854 ft | 550 kts | 160° |
| 2026-05-04 12:09 | -47.34202 | 26.23621 | 39849 ft | 550 kts | 160° |
| 2026-05-04 12:09 | -47.41079 | 26.28415 | 39862 ft | 548 kts | 160° |
| 2026-05-04 12:10 | -47.47995 | 26.33252 | 39851 ft | 540 kts | 160° |
| 2026-05-04 12:10 | -47.54695 | 26.37954 | 39872 ft | 536 kts | 160° |
| 2026-05-04 12:11 | -47.61462 | 26.42705 | 39867 ft | 538 kts | 160° |
| 2026-05-04 12:11 | -47.68241 | 26.47482 | 39874 ft | 540 kts | 160° |
| 2026-05-04 12:12 | -47.75026 | 26.52280 | 39868 ft | 539 kts | 160° |
| 2026-05-04 12:12 | -47.81726 | 26.57034 | 39869 ft | 538 kts | 160° |
| 2026-05-04 12:14 | -48.08772 | 26.76358 | 39870 ft | 534 kts | 160° |
| 2026-05-04 12:15 | -48.15482 | 26.81183 | 39872 ft | 533 kts | 160° |
| 2026-05-04 12:15 | -48.22142 | 26.85985 | 39875 ft | 534 kts | 160° |
| 2026-05-04 12:16 | -48.28846 | 26.90838 | 39866 ft | 535 kts | 160° |
| 2026-05-04 12:16 | -48.35531 | 26.95693 | 39878 ft | 534 kts | 160° |
| 2026-05-04 12:17 | -48.42217 | 27.00560 | 39871 ft | 534 kts | 160° |
| 2026-05-04 12:17 | -48.48909 | 27.05446 | 39870 ft | 534 kts | 160° |
| 2026-05-04 12:18 | -48.55592 | 27.10340 | 39879 ft | 534 kts | 160° |
| 2026-05-04 12:18 | -48.62279 | 27.15249 | 39867 ft | 534 kts | 160° |
| 2026-05-04 12:19 | -48.68959 | 27.20167 | 39876 ft | 534 kts | 160° |
| 2026-05-04 12:19 | -48.75601 | 27.25078 | 39875 ft | 533 kts | 160° |
| 2026-05-04 12:20 | -48.82266 | 27.30019 | 39868 ft | 533 kts | 160° |
| 2026-05-04 12:20 | -48.88951 | 27.34988 | 39881 ft | 532 kts | 160° |
| 2026-05-04 12:21 | -48.95557 | 27.39912 | 39869 ft | 532 kts | 160° |
| 2026-05-04 12:21 | -49.02241 | 27.44911 | 39877 ft | 531 kts | 160° |
| 2026-05-04 12:22 | -49.08813 | 27.49839 | 39876 ft | 530 kts | 160° |
| 2026-05-04 12:22 | -49.15440 | 27.54823 | 39869 ft | 530 kts | 160° |
| 2026-05-04 12:23 | -49.22041 | 27.59803 | 39882 ft | 529 kts | 160° |
| 2026-05-04 12:23 | -49.28644 | 27.64800 | 39870 ft | 528 kts | 159° |
| 2026-05-04 12:24 | -49.35211 | 27.69784 | 39877 ft | 527 kts | 159° |
| 2026-05-04 12:24 | -49.41793 | 27.74795 | 39879 ft | 527 kts | 159° |
| 2026-05-04 12:25 | -49.48317 | 27.79776 | 39871 ft | 526 kts | 159° |
| 2026-05-04 12:25 | -49.54854 | 27.84782 | 39889 ft | 525 kts | 159° |
| 2026-05-04 12:26 | -49.61398 | 27.89808 | 39912 ft | 525 kts | 159° |
| 2026-05-04 12:26 | -49.67936 | 27.94845 | 39924 ft | 525 kts | 159° |
| 2026-05-04 12:27 | -49.74474 | 27.99897 | 39914 ft | 526 kts | 159° |
| 2026-05-04 12:27 | -49.81011 | 28.04965 | 39919 ft | 525 kts | 159° |
| 2026-05-04 12:28 | -49.87510 | 28.10018 | 39922 ft | 525 kts | 159° |
| 2026-05-04 12:28 | -49.94032 | 28.15104 | 39912 ft | 524 kts | 159° |
| 2026-05-04 12:29 | -50.00558 | 28.20205 | 39923 ft | 525 kts | 159° |
| 2026-05-04 12:29 | -50.07079 | 28.25323 | 39917 ft | 525 kts | 159° |
| 2026-05-04 12:30 | -50.12504 | 28.29590 | 39918 ft | 525 kts | 159° |
| 2026-05-04 12:30 | -50.20071 | 28.35564 | 39923 ft | 524 kts | 159° |
| 2026-05-04 12:31 | -50.25530 | 28.39887 | 39918 ft | 525 kts | 159° |
| 2026-05-04 12:31 | -50.32000 | 28.45024 | 39921 ft | 525 kts | 159° |
| 2026-05-04 12:32 | -50.41754 | 28.52797 | 39919 ft | 524 kts | 159° |
| 2026-05-04 12:33 | -50.48261 | 28.58000 | 39920 ft | 523 kts | 159° |
| 2026-05-04 12:33 | -50.54738 | 28.63199 | 39927 ft | 524 kts | 159° |
| 2026-05-04 12:34 | -50.61247 | 28.68441 | 39915 ft | 524 kts | 159° |
| 2026-05-04 12:34 | -50.67736 | 28.73683 | 39899 ft | 524 kts | 159° |
| 2026-05-04 12:35 | -50.74231 | 28.78945 | 39901 ft | 524 kts | 159° |
| 2026-05-04 12:35 | -50.80705 | 28.84205 | 39908 ft | 524 kts | 159° |
| 2026-05-04 12:36 | -50.87189 | 28.89491 | 39896 ft | 524 kts | 159° |
| 2026-05-04 12:36 | -50.93670 | 28.94805 | 39909 ft | 525 kts | 158° |
| 2026-05-04 12:37 | -51.00072 | 29.00402 | 39900 ft | 526 kts | 156° |
| 2026-05-04 12:37 | -51.06432 | 29.06182 | 39904 ft | 526 kts | 155° |
| 2026-05-04 12:38 | -51.12735 | 29.12104 | 39908 ft | 527 kts | 155° |
| 2026-05-04 12:38 | -51.18987 | 29.18072 | 39898 ft | 527 kts | 155° |
| 2026-05-04 12:39 | -51.25275 | 29.24105 | 39909 ft | 527 kts | 155° |
| 2026-05-04 12:39 | -51.31564 | 29.30161 | 39900 ft | 527 kts | 155° |
| 2026-05-04 12:40 | -51.37846 | 29.36229 | 39907 ft | 527 kts | 155° |
| 2026-05-04 12:40 | -51.44121 | 29.42308 | 39908 ft | 527 kts | 154° |
| 2026-05-04 12:41 | -51.50371 | 29.48382 | 39900 ft | 527 kts | 154° |
| 2026-05-04 12:41 | -51.56652 | 29.54506 | 39913 ft | 528 kts | 154° |
| 2026-05-04 12:42 | -51.62927 | 29.60643 | 39901 ft | 528 kts | 154° |
| 2026-05-04 12:42 | -51.69195 | 29.66796 | 39908 ft | 528 kts | 154° |
| 2026-05-04 12:43 | -51.75396 | 29.72898 | 39905 ft | 528 kts | 154° |
| 2026-05-04 12:43 | -51.81629 | 29.79057 | 39904 ft | 528 kts | 154° |
| 2026-05-04 12:44 | -51.87891 | 29.85264 | 39914 ft | 528 kts | 154° |
| 2026-05-04 12:44 | -51.94173 | 29.91508 | 39900 ft | 528 kts | 154° |
| 2026-05-04 12:45 | -52.00437 | 29.97759 | 39913 ft | 528 kts | 154° |
| 2026-05-04 12:45 | -52.06692 | 30.04021 | 39907 ft | 529 kts | 154° |
| 2026-05-04 12:46 | -52.12952 | 30.10306 | 39905 ft | 528 kts | 154° |
| 2026-05-04 12:46 | -52.19174 | 30.16577 | 39916 ft | 528 kts | 154° |
| 2026-05-04 12:47 | -52.25428 | 30.22901 | 39906 ft | 529 kts | 154° |
| 2026-05-04 12:47 | -52.31678 | 30.29240 | 39909 ft | 529 kts | 154° |
| 2026-05-04 12:48 | -52.37922 | 30.35597 | 39914 ft | 529 kts | 154° |
| 2026-05-04 12:48 | -52.44168 | 30.41977 | 39903 ft | 529 kts | 154° |
| 2026-05-04 12:49 | -52.50411 | 30.48376 | 39916 ft | 529 kts | 154° |
| 2026-05-04 12:49 | -52.56661 | 30.54803 | 39907 ft | 529 kts | 154° |
| 2026-05-04 12:50 | -52.62887 | 30.61227 | 39910 ft | 528 kts | 153° |
| 2026-05-04 12:50 | -52.69111 | 30.67670 | 39916 ft | 529 kts | 153° |
| 2026-05-04 12:51 | -52.75343 | 30.74144 | 39905 ft | 529 kts | 153° |
| 2026-05-04 12:51 | -52.81528 | 30.80592 | 39917 ft | 529 kts | 153° |
| 2026-05-04 12:52 | -52.87747 | 30.87097 | 39909 ft | 529 kts | 153° |
| 2026-05-04 12:52 | -52.93967 | 30.93620 | 39913 ft | 529 kts | 154° |
| 2026-05-04 12:53 | -53.00255 | 30.99946 | 39917 ft | 528 kts | 155° |
| 2026-05-04 12:53 | -53.06584 | 31.06149 | 39906 ft | 527 kts | 155° |
| 2026-05-04 12:54 | -53.12935 | 31.12252 | 39919 ft | 527 kts | 156° |
| 2026-05-04 12:54 | -53.19253 | 31.18286 | 39948 ft | 526 kts | 156° |
| 2026-05-04 12:55 | -53.25607 | 31.24363 | 39988 ft | 527 kts | 156° |
| 2026-05-04 12:55 | -53.31970 | 31.30471 | 40026 ft | 527 kts | 155° |
| 2026-05-04 12:56 | -53.38331 | 31.36600 | 40013 ft | 528 kts | 155° |
| 2026-05-04 12:56 | -53.44700 | 31.42762 | 39979 ft | 527 kts | 155° |
| 2026-05-04 12:57 | -53.51051 | 31.48925 | 39959 ft | 527 kts | 155° |
| 2026-05-04 12:57 | -53.57188 | 31.54900 | 39952 ft | 527 kts | 155° |
| 2026-05-04 12:58 | -53.63629 | 31.61192 | 39966 ft | 528 kts | 155° |
| 2026-05-04 12:58 | -53.69974 | 31.67410 | 39952 ft | 528 kts | 155° |
| 2026-05-04 12:59 | -53.76313 | 31.73653 | 39965 ft | 528 kts | 155° |
| 2026-05-04 12:59 | -53.82659 | 31.79921 | 39958 ft | 528 kts | 155° |
| 2026-05-04 13:00 | -53.89004 | 31.86211 | 39958 ft | 528 kts | 155° |
| 2026-05-04 13:00 | -53.95346 | 31.92520 | 39966 ft | 528 kts | 155° |
| 2026-05-04 13:01 | -54.01687 | 31.98849 | 39954 ft | 528 kts | 155° |
| 2026-05-04 13:01 | -54.08014 | 32.05187 | 39966 ft | 528 kts | 155° |
| 2026-05-04 13:02 | -54.14318 | 32.11522 | 39961 ft | 529 kts | 155° |
| 2026-05-04 13:02 | -54.20643 | 32.17904 | 39960 ft | 528 kts | 155° |
| 2026-05-04 13:03 | -54.26982 | 32.24324 | 39968 ft | 528 kts | 155° |
| 2026-05-04 13:03 | -54.33311 | 32.30756 | 39957 ft | 529 kts | 155° |
| 2026-05-04 13:04 | -54.39633 | 32.37199 | 39965 ft | 528 kts | 154° |
| 2026-05-04 13:04 | -54.45916 | 32.43631 | 39969 ft | 529 kts | 154° |
| 2026-05-04 13:05 | -54.52226 | 32.50114 | 39958 ft | 529 kts | 154° |
| 2026-05-04 13:05 | -54.58540 | 32.56627 | 39971 ft | 529 kts | 154° |
| 2026-05-04 13:06 | -54.64850 | 32.63159 | 39984 ft | 528 kts | 154° |
| 2026-05-04 13:06 | -54.71129 | 32.69681 | 40000 ft | 529 kts | 154° |
| 2026-05-04 13:07 | -54.77473 | 32.76294 | 40001 ft | 529 kts | 154° |
| 2026-05-04 13:07 | -54.83774 | 32.82888 | 39992 ft | 529 kts | 154° |
| 2026-05-04 13:08 | -54.90032 | 32.89462 | 40005 ft | 529 kts | 154° |
| 2026-05-04 13:08 | -54.96399 | 32.96081 | 39995 ft | 529 kts | 155° |
| 2026-05-04 13:09 | -55.02755 | 33.02386 | 40000 ft | 528 kts | 156° |
| 2026-05-04 13:09 | -55.09170 | 33.08608 | 40005 ft | 528 kts | 156° |
| 2026-05-04 13:10 | -55.15633 | 33.14779 | 39988 ft | 528 kts | 156° |
| 2026-05-04 13:10 | -55.22039 | 33.20882 | 39993 ft | 527 kts | 156° |
| 2026-05-04 13:11 | -55.28485 | 33.27041 | 39997 ft | 528 kts | 156° |
| 2026-05-04 13:11 | -55.34950 | 33.33242 | 39987 ft | 528 kts | 156° |
| 2026-05-04 13:12 | -55.41377 | 33.39433 | 40000 ft | 527 kts | 156° |
| 2026-05-04 13:12 | -55.47814 | 33.45656 | 39991 ft | 528 kts | 156° |
| 2026-05-04 13:13 | -55.54251 | 33.51903 | 39995 ft | 528 kts | 156° |
| 2026-05-04 13:13 | -55.60643 | 33.58129 | 40000 ft | 528 kts | 156° |
| 2026-05-04 13:14 | -55.67129 | 33.64468 | 39989 ft | 529 kts | 156° |
| 2026-05-04 13:14 | -55.73538 | 33.70760 | 40002 ft | 529 kts | 156° |
| 2026-05-04 13:15 | -55.79964 | 33.77092 | 39993 ft | 529 kts | 155° |
| 2026-05-04 13:15 | -55.86403 | 33.83456 | 39996 ft | 528 kts | 155° |
| 2026-05-04 13:16 | -55.92830 | 33.89834 | 40000 ft | 529 kts | 155° |
| 2026-05-04 13:16 | -55.98173 | 33.95159 | 39991 ft | 529 kts | 155° |
| 2026-05-04 13:17 | -56.04596 | 34.01581 | 40003 ft | 529 kts | 155° |
| 2026-05-04 13:17 | -56.11022 | 34.08031 | 39997 ft | 529 kts | 155° |
| 2026-05-04 13:18 | -56.17390 | 34.14448 | 39997 ft | 529 kts | 155° |
| 2026-05-04 13:18 | -56.23809 | 34.20942 | 40005 ft | 529 kts | 155° |
| 2026-05-04 13:19 | -56.30233 | 34.27464 | 39993 ft | 529 kts | 155° |
| 2026-05-04 13:19 | -56.36643 | 34.33996 | 40005 ft | 529 kts | 155° |
| 2026-05-04 13:20 | -56.43057 | 34.40559 | 39999 ft | 530 kts | 155° |
| 2026-05-04 13:20 | -56.49469 | 34.47147 | 39998 ft | 530 kts | 155° |
| 2026-05-04 13:21 | -56.55871 | 34.53749 | 40008 ft | 530 kts | 155° |
| 2026-05-04 13:21 | -56.62250 | 34.60353 | 39996 ft | 530 kts | 155° |
| 2026-05-04 13:22 | -56.68653 | 34.67009 | 40006 ft | 530 kts | 155° |
| 2026-05-04 13:22 | -56.74689 | 34.73308 | 40005 ft | 530 kts | 154° |
| 2026-05-04 13:23 | -56.81104 | 34.80027 | 39998 ft | 530 kts | 154° |
| 2026-05-04 13:23 | -56.87469 | 34.86720 | 40011 ft | 530 kts | 154° |
| 2026-05-04 13:24 | -56.93910 | 34.93510 | 40000 ft | 530 kts | 155° |
| 2026-05-04 13:24 | -57.00330 | 34.99960 | 40004 ft | 529 kts | 156° |
| 2026-05-04 13:25 | -57.10094 | 35.09455 | 40001 ft | 529 kts | 157° |
| 2026-05-04 13:25 | -57.16638 | 35.15681 | 40006 ft | 529 kts | 157° |
| 2026-05-04 13:26 | -57.23178 | 35.21892 | 40011 ft | 529 kts | 157° |
| 2026-05-04 13:26 | -57.29708 | 35.28118 | 40000 ft | 528 kts | 157° |
| 2026-05-04 13:27 | -57.36243 | 35.34376 | 40014 ft | 529 kts | 157° |
| 2026-05-04 13:27 | -57.42780 | 35.40660 | 40010 ft | 529 kts | 157° |
| 2026-05-04 13:28 | -57.49328 | 35.46982 | 40029 ft | 529 kts | 156° |
| 2026-05-04 13:28 | -57.55856 | 35.53312 | 40026 ft | 529 kts | 156° |
| 2026-05-04 13:29 | -57.62334 | 35.59617 | 40021 ft | 529 kts | 156° |
| 2026-05-04 13:29 | -57.68880 | 35.66015 | 40033 ft | 529 kts | 156° |
| 2026-05-04 13:30 | -57.75405 | 35.72416 | 40020 ft | 530 kts | 156° |
| 2026-05-04 13:30 | -57.81920 | 35.78838 | 40031 ft | 529 kts | 156° |
| 2026-05-04 13:31 | -57.88432 | 35.85281 | 40028 ft | 529 kts | 156° |
| 2026-05-04 13:31 | -57.94906 | 35.91713 | 40024 ft | 529 kts | 156° |
| 2026-05-04 13:32 | -58.01417 | 35.98209 | 40035 ft | 529 kts | 156° |
| 2026-05-04 13:32 | -58.07930 | 36.04734 | 40023 ft | 529 kts | 156° |
| 2026-05-04 13:33 | -58.14428 | 36.11271 | 40033 ft | 529 kts | 156° |
| 2026-05-04 13:33 | -58.20938 | 36.17847 | 40031 ft | 529 kts | 156° |
| 2026-05-04 13:34 | -58.27431 | 36.24434 | 40026 ft | 529 kts | 156° |
| 2026-05-04 13:34 | -58.33924 | 36.31046 | 40037 ft | 530 kts | 156° |
| 2026-05-04 13:35 | -58.43677 | 36.41033 | 40026 ft | 530 kts | 155° |
| 2026-05-04 13:36 | -58.50120 | 36.47667 | 40038 ft | 530 kts | 155° |
| 2026-05-04 13:36 | -58.56619 | 36.54385 | 40027 ft | 531 kts | 155° |
| 2026-05-04 13:37 | -58.63119 | 36.61134 | 40034 ft | 531 kts | 155° |
| 2026-05-04 13:37 | -58.69614 | 36.67906 | 40036 ft | 531 kts | 155° |
| 2026-05-04 13:38 | -58.76112 | 36.74709 | 40027 ft | 531 kts | 155° |
| 2026-05-04 13:38 | -58.82599 | 36.81532 | 40041 ft | 531 kts | 155° |
| 2026-05-04 13:39 | -58.89077 | 36.88373 | 40030 ft | 532 kts | 155° |
| 2026-05-04 13:39 | -58.95471 | 36.95467 | 40038 ft | 533 kts | 152° |
| 2026-05-04 13:40 | -59.01802 | 37.03208 | 40036 ft | 534 kts | 151° |
| 2026-05-04 13:40 | -59.07940 | 37.11175 | 40031 ft | 534 kts | 149° |
| 2026-05-04 13:41 | -59.14018 | 37.19525 | 40042 ft | 536 kts | 148° |
| 2026-05-04 13:41 | -59.20073 | 37.28036 | 40031 ft | 536 kts | 147° |
| 2026-05-04 13:42 | -59.29129 | 37.40862 | 40044 ft | 536 kts | 147° |
| 2026-05-04 13:42 | -59.35158 | 37.49437 | 40032 ft | 536 kts | 147° |
| 2026-05-04 13:43 | -59.41188 | 37.58053 | 40041 ft | 536 kts | 147° |
| 2026-05-04 13:43 | -59.47216 | 37.66703 | 40041 ft | 536 kts | 147° |
| 2026-05-04 13:44 | -59.53222 | 37.75361 | 40034 ft | 536 kts | 147° |
| 2026-05-04 13:44 | -59.59237 | 37.84070 | 40046 ft | 536 kts | 147° |
| 2026-05-04 13:45 | -59.65211 | 37.92760 | 40036 ft | 536 kts | 147° |
| 2026-05-04 13:45 | -59.71210 | 38.01527 | 40018 ft | 536 kts | 147° |
| 2026-05-04 13:46 | -59.77208 | 38.10333 | 40009 ft | 536 kts | 147° |
| 2026-05-04 13:46 | -59.83194 | 38.19160 | 40022 ft | 536 kts | 146° |
| 2026-05-04 13:47 | -59.89173 | 38.28017 | 40013 ft | 536 kts | 146° |
| 2026-05-04 13:47 | -59.95122 | 38.36870 | 40016 ft | 537 kts | 146° |
| 2026-05-04 13:48 | -60.01100 | 38.45809 | 40023 ft | 537 kts | 146° |
| 2026-05-04 13:48 | -60.07078 | 38.54788 | 40011 ft | 536 kts | 146° |
| 2026-05-04 13:49 | -60.13031 | 38.63770 | 40023 ft | 537 kts | 146° |
| 2026-05-04 13:49 | -60.19002 | 38.72821 | 40019 ft | 537 kts | 146° |
| 2026-05-04 13:50 | -60.24961 | 38.81900 | 40015 ft | 537 kts | 146° |
| 2026-05-04 13:50 | -60.30903 | 38.90992 | 40026 ft | 537 kts | 146° |
| 2026-05-04 13:51 | -60.36822 | 39.00091 | 40014 ft | 538 kts | 146° |
| 2026-05-04 13:51 | -60.42783 | 39.09301 | 40025 ft | 538 kts | 145° |
| 2026-05-04 13:52 | -60.51697 | 39.23151 | 40015 ft | 538 kts | 145° |
| 2026-05-04 13:53 | -60.57629 | 39.32425 | 40026 ft | 538 kts | 145° |
| 2026-05-04 13:53 | -60.63534 | 39.41699 | 40022 ft | 539 kts | 145° |
| 2026-05-04 13:54 | -60.72433 | 39.55759 | 40027 ft | 539 kts | 145° |
| 2026-05-04 13:55 | -60.81306 | 39.69879 | 40037 ft | 539 kts | 144° |
| 2026-05-04 13:55 | -60.90184 | 39.84110 | 40076 ft | 539 kts | 144° |
| 2026-05-04 13:56 | -60.96037 | 39.93734 | 40088 ft | 539 kts | 143° |
| 2026-05-04 13:57 | -61.04638 | 40.08615 | 40075 ft | 541 kts | 142° |
| 2026-05-04 13:58 | -61.15980 | 40.29253 | 40080 ft | 542 kts | 141° |
| 2026-05-04 13:58 | -61.24410 | 40.44897 | 40088 ft | 542 kts | 140° |
| 2026-05-04 13:59 | -61.30024 | 40.55373 | 40081 ft | 542 kts | 140° |
| 2026-05-04 14:00 | -61.38436 | 40.71164 | 40088 ft | 543 kts | 140° |
| 2026-05-04 14:00 | -61.46847 | 40.87075 | 40078 ft | 543 kts | 140° |
| 2026-05-04 14:01 | -61.52436 | 40.97714 | 40089 ft | 543 kts | 140° |
| 2026-05-04 14:02 | -61.60781 | 41.13699 | 40079 ft | 544 kts | 140° |
| 2026-05-04 14:02 | -61.66393 | 41.24519 | 40090 ft | 544 kts | 139° |
| 2026-05-04 14:03 | -61.70997 | 41.33437 | 40089 ft | 544 kts | 139° |
| 2026-05-04 14:03 | -61.76573 | 41.44289 | 40080 ft | 544 kts | 139° |
| 2026-05-04 14:04 | -61.84918 | 41.60636 | 40091 ft | 545 kts | 139° |
| 2026-05-04 14:04 | -61.90468 | 41.71579 | 40081 ft | 545 kts | 139° |
| 2026-05-04 14:05 | -61.98752 | 41.88018 | 40093 ft | 545 kts | 139° |
| 2026-05-04 14:06 | -62.04285 | 41.99070 | 40082 ft | 545 kts | 139° |
| 2026-05-04 14:06 | -62.09813 | 42.10168 | 40094 ft | 545 kts | 139° |
| 2026-05-04 14:07 | -62.15326 | 42.21295 | 40087 ft | 545 kts | 139° |
| 2026-05-04 14:07 | -62.20824 | 42.32451 | 40087 ft | 545 kts | 138° |
| 2026-05-04 14:08 | -62.26322 | 42.43665 | 40096 ft | 545 kts | 138° |
| 2026-05-04 14:08 | -62.31808 | 42.54916 | 40084 ft | 545 kts | 138° |
| 2026-05-04 14:09 | -62.40003 | 42.71833 | 40097 ft | 547 kts | 138° |
| 2026-05-04 14:10 | -62.48208 | 42.88907 | 40086 ft | 546 kts | 138° |
| 2026-05-04 14:10 | -62.53669 | 43.00346 | 40099 ft | 546 kts | 138° |
| 2026-05-04 14:11 | -62.59134 | 43.11855 | 40086 ft | 548 kts | 137° |
| 2026-05-04 14:11 | -62.67316 | 43.29206 | 40099 ft | 547 kts | 137° |
| 2026-05-04 14:12 | -62.72720 | 43.40743 | 40087 ft | 547 kts | 137° |
| 2026-05-04 14:13 | -62.80862 | 43.58245 | 40100 ft | 547 kts | 137° |
| 2026-05-04 14:13 | -62.86285 | 43.69979 | 40089 ft | 548 kts | 137° |
| 2026-05-04 14:14 | -62.91692 | 43.81747 | 40097 ft | 547 kts | 137° |
| 2026-05-04 14:14 | -63.00005 | 43.98941 | 40090 ft | 547 kts | 140° |
| 2026-05-04 14:15 | -63.11464 | 44.20860 | 40100 ft | 546 kts | 142° |
| 2026-05-04 14:16 | -63.20223 | 44.36988 | 40097 ft | 546 kts | 142° |
| 2026-05-04 14:17 | -63.28983 | 44.53215 | 40094 ft | 546 kts | 142° |
| 2026-05-04 14:18 | -63.37675 | 44.69468 | 40103 ft | 546 kts | 142° |
| 2026-05-04 14:19 | -63.49327 | 44.91468 | 40094 ft | 547 kts | 141° |
| 2026-05-04 14:19 | -63.55101 | 45.02457 | 40084 ft | 547 kts | 141° |
| 2026-05-04 14:20 | -63.60895 | 45.13549 | 40092 ft | 548 kts | 141° |
| 2026-05-04 14:20 | -63.66692 | 45.24708 | 40093 ft | 549 kts | 141° |
| 2026-05-04 14:21 | -63.75376 | 45.41540 | 40091 ft | 548 kts | 141° |
| 2026-05-04 14:21 | -63.81171 | 45.52852 | 40096 ft | 549 kts | 141° |
| 2026-05-04 14:22 | -63.86933 | 45.64164 | 40085 ft | 548 kts | 141° |
| 2026-05-04 14:22 | -63.92661 | 45.75472 | 40097 ft | 548 kts | 141° |
| 2026-05-04 14:23 | -64.01284 | 45.92617 | 40086 ft | 548 kts | 141° |
| 2026-05-04 14:24 | -64.07017 | 46.04095 | 40098 ft | 548 kts | 140° |
| 2026-05-04 14:24 | -64.12749 | 46.15638 | 40092 ft | 549 kts | 140° |
| 2026-05-04 14:25 | -64.18469 | 46.27224 | 40085 ft | 548 kts | 140° |
| 2026-05-04 14:25 | -64.26994 | 46.44613 | 40094 ft | 548 kts | 140° |
| 2026-05-04 14:26 | -64.32691 | 46.56318 | 40085 ft | 548 kts | 140° |
| 2026-05-04 14:26 | -64.38373 | 46.68058 | 40098 ft | 548 kts | 140° |
| 2026-05-04 14:27 | -64.44060 | 46.79878 | 40089 ft | 549 kts | 140° |
| 2026-05-04 14:27 | -64.49731 | 46.91735 | 40092 ft | 549 kts | 140° |
| 2026-05-04 14:28 | -64.55393 | 47.03641 | 40091 ft | 549 kts | 140° |
| 2026-05-04 14:28 | -64.61055 | 47.15618 | 40073 ft | 549 kts | 140° |
| 2026-05-04 14:29 | -64.72315 | 47.39644 | 40082 ft | 551 kts | 139° |
| 2026-05-04 14:30 | -64.77957 | 47.51789 | 40071 ft | 551 kts | 139° |
| 2026-05-04 14:31 | -64.86413 | 47.70131 | 40082 ft | 550 kts | 139° |
| 2026-05-04 14:32 | -64.97620 | 47.94703 | 40067 ft | 549 kts | 139° |
| 2026-05-04 14:32 | -65.03198 | 48.07075 | 40075 ft | 550 kts | 139° |
| 2026-05-04 14:33 | -65.08777 | 48.19551 | 40063 ft | 551 kts | 138° |
| 2026-05-04 14:33 | -65.14315 | 48.32019 | 40076 ft | 551 kts | 138° |
| 2026-05-04 14:34 | -65.19868 | 48.44596 | 40066 ft | 551 kts | 138° |
| 2026-05-04 14:34 | -65.25411 | 48.57226 | 40070 ft | 551 kts | 138° |
| 2026-05-04 14:35 | -65.30922 | 48.69860 | 40076 ft | 551 kts | 138° |
| 2026-05-04 14:35 | -65.36457 | 48.82628 | 40065 ft | 551 kts | 138° |
| 2026-05-04 14:36 | -65.41887 | 48.95229 | 40077 ft | 551 kts | 137° |
| 2026-05-04 14:36 | -65.47399 | 49.08097 | 40070 ft | 551 kts | 137° |
| 2026-05-04 14:37 | -65.52889 | 49.20998 | 40069 ft | 551 kts | 137° |
| 2026-05-04 14:37 | -65.58375 | 49.33969 | 40079 ft | 551 kts | 137° |
| 2026-05-04 14:38 | -65.63851 | 49.46996 | 40067 ft | 551 kts | 137° |
| 2026-05-04 14:38 | -65.69302 | 49.60044 | 40077 ft | 551 kts | 137° |
| 2026-05-04 14:39 | -65.74755 | 49.73179 | 40075 ft | 550 kts | 137° |
| 2026-05-04 14:39 | -65.80148 | 49.86254 | 40069 ft | 550 kts | 136° |
| 2026-05-04 14:40 | -65.88272 | 50.06103 | 40079 ft | 551 kts | 136° |
| 2026-05-04 14:40 | -65.93661 | 50.19374 | 40088 ft | 550 kts | 136° |
| 2026-05-04 14:41 | -65.99066 | 50.32768 | 40081 ft | 551 kts | 136° |
| 2026-05-04 14:42 | -66.09805 | 50.59640 | 40090 ft | 551 kts | 136° |
| 2026-05-04 14:42 | -66.15111 | 50.73046 | 40078 ft | 550 kts | 136° |
| 2026-05-04 14:43 | -66.20463 | 50.86653 | 40089 ft | 550 kts | 136° |
| 2026-05-04 14:43 | -66.25800 | 51.00312 | 40085 ft | 551 kts | 135° |
| 2026-05-04 14:44 | -66.31113 | 51.13997 | 40082 ft | 550 kts | 135° |
| 2026-05-04 14:44 | -66.36426 | 51.27770 | 40092 ft | 551 kts | 135° |
| 2026-05-04 14:45 | -66.41723 | 51.41593 | 40080 ft | 552 kts | 135° |
| 2026-05-04 14:45 | -66.47012 | 51.55487 | 40090 ft | 551 kts | 135° |
| 2026-05-04 14:46 | -66.52297 | 51.69459 | 40088 ft | 552 kts | 135° |
| 2026-05-04 14:46 | -66.57580 | 51.83521 | 40081 ft | 553 kts | 135° |
| 2026-05-04 14:47 | -66.62801 | 51.97509 | 40095 ft | 551 kts | 135° |
| 2026-05-04 14:47 | -66.68047 | 52.11659 | 40082 ft | 553 kts | 134° |
| 2026-05-04 14:48 | -66.73284 | 52.25878 | 40092 ft | 552 kts | 134° |
| 2026-05-04 14:48 | -66.78503 | 52.40146 | 40090 ft | 552 kts | 134° |
| 2026-05-04 14:49 | -66.83706 | 52.54464 | 40084 ft | 551 kts | 134° |
| 2026-05-04 14:49 | -66.88891 | 52.68828 | 40096 ft | 552 kts | 134° |
| 2026-05-04 14:50 | -66.94074 | 52.83223 | 40087 ft | 550 kts | 134° |
| 2026-05-04 14:50 | -66.99160 | 52.97053 | 40070 ft | 550 kts | 135° |
| 2026-05-04 14:51 | -67.04436 | 53.11344 | 40059 ft | 551 kts | 135° |
| 2026-05-04 14:51 | -67.09743 | 53.25532 | 40070 ft | 550 kts | 135° |
| 2026-05-04 14:52 | -67.14171 | 53.37301 | 40069 ft | 550 kts | 135° |
| 2026-05-04 14:52 | -67.19493 | 53.51491 | 40107 ft | 550 kts | 135° |
| 2026-05-04 14:53 | -67.24796 | 53.65725 | 40132 ft | 551 kts | 135° |
| 2026-05-04 14:53 | -67.30080 | 53.80012 | 40149 ft | 549 kts | 135° |
| 2026-05-04 14:54 | -67.35356 | 53.94376 | 40144 ft | 549 kts | 135° |
| 2026-05-04 14:54 | -67.40610 | 54.08780 | 40141 ft | 549 kts | 135° |
| 2026-05-04 14:55 | -67.45813 | 54.23143 | 40152 ft | 549 kts | 135° |
| 2026-05-04 14:55 | -67.51052 | 54.37704 | 40139 ft | 549 kts | 135° |
| 2026-05-04 14:56 | -67.56254 | 54.52264 | 40149 ft | 550 kts | 134° |
| 2026-05-04 14:56 | -67.61489 | 54.67014 | 40147 ft | 551 kts | 134° |
| 2026-05-04 14:57 | -67.66637 | 54.81622 | 40141 ft | 551 kts | 134° |
| 2026-05-04 14:57 | -67.71882 | 54.96611 | 40153 ft | 551 kts | 134° |
| 2026-05-04 14:58 | -67.77064 | 55.11525 | 40142 ft | 551 kts | 134° |
| 2026-05-04 14:58 | -67.82214 | 55.26451 | 40147 ft | 551 kts | 134° |
| 2026-05-04 14:59 | -67.87345 | 55.41429 | 40151 ft | 551 kts | 134° |
| 2026-05-04 15:00 | -67.95081 | 55.64211 | 40132 ft | 551 kts | 133° |
| 2026-05-04 15:00 | -68.00194 | 55.79402 | 40144 ft | 551 kts | 133° |
| 2026-05-04 15:01 | -68.07851 | 56.02359 | 40132 ft | 551 kts | 133° |
| 2026-05-04 15:01 | -68.12909 | 56.17662 | 40144 ft | 551 kts | 133° |
| 2026-05-04 15:02 | -68.18013 | 56.33213 | 40138 ft | 551 kts | 133° |
| 2026-05-04 15:02 | -68.23019 | 56.48579 | 40136 ft | 550 kts | 133° |
| 2026-05-04 15:03 | -68.28060 | 56.64166 | 40144 ft | 550 kts | 132° |
| 2026-05-04 15:03 | -68.33083 | 56.79810 | 40133 ft | 550 kts | 132° |
| 2026-05-04 15:04 | -68.38072 | 56.95461 | 40144 ft | 549 kts | 132° |
| 2026-05-04 15:04 | -68.42990 | 57.11003 | 40139 ft | 549 kts | 132° |
| 2026-05-04 15:05 | -68.47982 | 57.26896 | 40135 ft | 550 kts | 132° |
| 2026-05-04 15:05 | -68.52970 | 57.42895 | 40147 ft | 550 kts | 131° |
| 2026-05-04 15:06 | -68.57900 | 57.58827 | 40135 ft | 550 kts | 131° |
| 2026-05-04 15:07 | -68.65290 | 57.82929 | 40137 ft | 550 kts | 131° |
| 2026-05-04 15:07 | -68.70168 | 57.98990 | 40126 ft | 550 kts | 131° |
| 2026-05-04 15:08 | -68.75087 | 58.15310 | 40115 ft | 550 kts | 131° |
| 2026-05-04 15:08 | -68.79911 | 58.31436 | 40127 ft | 548 kts | 131° |
| 2026-05-04 15:09 | -68.84756 | 58.47754 | 40121 ft | 548 kts | 130° |
| 2026-05-04 15:09 | -68.89575 | 58.64106 | 40117 ft | 547 kts | 130° |
| 2026-05-04 15:10 | -68.96666 | 58.89108 | 40122 ft | 549 kts | 128° |
| 2026-05-04 15:11 | -69.03541 | 59.14599 | 40127 ft | 548 kts | 127° |
| 2026-05-04 15:11 | -69.07972 | 59.31980 | 40122 ft | 549 kts | 126° |
| 2026-05-04 15:12 | -69.12277 | 59.49427 | 40119 ft | 549 kts | 125° |
| 2026-05-04 15:12 | -69.16304 | 59.65965 | 40129 ft | 549 kts | 125° |
| 2026-05-04 15:13 | -69.20591 | 59.83702 | 40118 ft | 548 kts | 125° |
| 2026-05-04 15:13 | -69.24869 | 60.01530 | 40124 ft | 548 kts | 125° |
| 2026-05-04 15:14 | -69.29094 | 60.19277 | 40126 ft | 548 kts | 124° |
| 2026-05-04 15:14 | -69.33351 | 60.37309 | 40117 ft | 548 kts | 124° |
| 2026-05-04 15:15 | -69.37559 | 60.55281 | 40129 ft | 548 kts | 124° |
| 2026-05-04 15:15 | -69.41734 | 60.73261 | 40120 ft | 549 kts | 124° |
| 2026-05-04 15:16 | -69.47982 | 61.00455 | 40129 ft | 549 kts | 124° |
| 2026-05-04 15:17 | -69.54217 | 61.27938 | 40117 ft | 548 kts | 123° |
| 2026-05-04 15:17 | -69.60392 | 61.55505 | 40128 ft | 547 kts | 123° |
| 2026-05-04 15:18 | -69.64455 | 61.73837 | 40117 ft | 546 kts | 123° |
| 2026-05-04 15:19 | -69.70556 | 62.01665 | 40129 ft | 547 kts | 123° |
| 2026-05-04 15:19 | -69.76542 | 62.29325 | 40121 ft | 546 kts | 123° |
| 2026-05-04 15:20 | -69.80574 | 62.48153 | 40130 ft | 547 kts | 122° |
| 2026-05-04 15:20 | -69.84561 | 62.66945 | 40117 ft | 548 kts | 122° |
| 2026-05-04 15:21 | -69.88528 | 62.85806 | 40128 ft | 548 kts | 122° |
| 2026-05-04 15:22 | -69.94457 | 63.14300 | 40118 ft | 548 kts | 122° |
| 2026-05-04 15:22 | -70.00312 | 63.42819 | 40109 ft | 547 kts | 122° |
| 2026-05-04 15:23 | -70.04179 | 63.61875 | 40077 ft | 545 kts | 121° |
| 2026-05-04 15:23 | -70.08029 | 63.81015 | 40112 ft | 546 kts | 121° |
| 2026-05-04 15:24 | -70.15697 | 64.19653 | 40178 ft | 547 kts | 121° |
| 2026-05-04 15:25 | -70.19501 | 64.39085 | 40193 ft | 545 kts | 121° |
| 2026-05-04 15:26 | -70.25118 | 64.68120 | 40183 ft | 545 kts | 120° |
| 2026-05-04 15:26 | -70.30700 | 64.97367 | 40196 ft | 544 kts | 120° |
| 2026-05-04 15:27 | -70.36240 | 65.26811 | 40183 ft | 545 kts | 120° |
| 2026-05-04 15:28 | -70.41739 | 65.56447 | 40193 ft | 546 kts | 120° |
| 2026-05-04 15:29 | -70.47195 | 65.86274 | 40190 ft | 546 kts | 119° |
| 2026-05-04 15:30 | -70.59706 | 66.56341 | 40196 ft | 544 kts | 118° |
| 2026-05-04 15:31 | -70.64982 | 66.86618 | 40188 ft | 544 kts | 118° |
| 2026-05-04 15:32 | -70.73677 | 67.37512 | 40186 ft | 545 kts | 117° |
| 2026-05-04 15:34 | -70.82190 | 67.88601 | 40185 ft | 545 kts | 117° |
| 2026-05-04 15:34 | -70.87271 | 68.19721 | 40193 ft | 545 kts | 117° |
| 2026-05-04 15:35 | -70.92276 | 68.50848 | 40191 ft | 545 kts | 116° |
| 2026-05-04 15:36 | -70.97228 | 68.82165 | 40187 ft | 545 kts | 116° |
| 2026-05-04 15:36 | -71.00491 | 69.03144 | 40190 ft | 543 kts | 116° |
| 2026-05-04 15:37 | -71.03705 | 69.24130 | 40196 ft | 544 kts | 115° |
| 2026-05-04 15:37 | -71.06897 | 69.45257 | 40184 ft | 543 kts | 115° |
| 2026-05-04 15:38 | -71.10056 | 69.66414 | 40195 ft | 543 kts | 115° |
| 2026-05-04 15:38 | -71.13191 | 69.87640 | 40190 ft | 543 kts | 115° |
| 2026-05-04 15:39 | -71.16273 | 70.08728 | 40188 ft | 542 kts | 115° |
| 2026-05-04 15:40 | -71.20891 | 70.40762 | 40157 ft | 542 kts | 114° |
| 2026-05-04 15:40 | -71.23937 | 70.62188 | 40135 ft | 542 kts | 114° |
| 2026-05-04 15:41 | -71.26446 | 70.80019 | 40125 ft | 542 kts | 114° |
| 2026-05-04 15:41 | -71.29934 | 71.05087 | 40114 ft | 542 kts | 114° |
| 2026-05-04 15:42 | -71.32419 | 71.23145 | 40103 ft | 542 kts | 114° |
| 2026-05-04 15:42 | -71.35366 | 71.44795 | 40111 ft | 540 kts | 113° |
| 2026-05-04 15:43 | -71.38263 | 71.66323 | 40112 ft | 539 kts | 113° |
| 2026-05-04 15:43 | -71.41152 | 71.88040 | 40102 ft | 539 kts | 113° |
| 2026-05-04 15:44 | -71.44009 | 72.09760 | 40115 ft | 538 kts | 113° |
| 2026-05-04 15:44 | -71.46838 | 72.31524 | 40105 ft | 538 kts | 112° |
| 2026-05-04 15:45 | -71.49644 | 72.53373 | 40107 ft | 538 kts | 112° |
| 2026-05-04 15:45 | -71.52426 | 72.75288 | 40112 ft | 540 kts | 112° |
| 2026-05-04 15:46 | -71.55187 | 72.97301 | 40101 ft | 539 kts | 112° |
| 2026-05-04 15:46 | -71.57918 | 73.19340 | 40083 ft | 538 kts | 112° |
| 2026-05-04 15:47 | -71.60603 | 73.41276 | 40071 ft | 537 kts | 111° |
| 2026-05-04 15:47 | -71.63288 | 73.63486 | 40082 ft | 536 kts | 111° |
| 2026-05-04 15:48 | -71.65924 | 73.85563 | 40077 ft | 535 kts | 111° |
| 2026-05-04 15:48 | -71.69835 | 74.18824 | 40080 ft | 535 kts | 111° |
| 2026-05-04 15:49 | -71.72390 | 74.40905 | 40079 ft | 535 kts | 110° |
| 2026-05-04 15:49 | -71.74943 | 74.63251 | 40071 ft | 536 kts | 110° |
| 2026-05-04 15:50 | -71.77470 | 74.85656 | 40084 ft | 537 kts | 110° |
| 2026-05-04 15:50 | -71.79974 | 75.08142 | 40072 ft | 536 kts | 110° |
| 2026-05-04 15:51 | -71.82445 | 75.30637 | 40073 ft | 536 kts | 110° |
| 2026-05-04 15:51 | -71.84891 | 75.53197 | 40035 ft | 535 kts | 109° |
| 2026-05-04 15:52 | -71.87294 | 75.75657 | 39999 ft | 534 kts | 109° |
| 2026-05-04 15:52 | -71.89666 | 75.98110 | 39896 ft | 532 kts | 109° |
| 2026-05-04 15:53 | -71.91997 | 76.20494 | 39878 ft | 532 kts | 109° |
| 2026-05-04 15:53 | -71.94329 | 76.43193 | 39839 ft | 533 kts | 108° |
| 2026-05-04 15:54 | -71.96661 | 76.65938 | 39808 ft | 534 kts | 109° |
| 2026-05-04 15:54 | -71.98992 | 76.88597 | 39775 ft | 534 kts | 109° |
| 2026-05-04 15:55 | -72.01297 | 77.11360 | 39742 ft | 529 kts | 108° |
| 2026-05-04 15:55 | -72.03589 | 77.33914 | 39711 ft | 528 kts | 108° |
| 2026-05-04 15:56 | -72.05910 | 77.56610 | 39671 ft | 529 kts | 108° |
| 2026-05-04 15:56 | -72.08212 | 77.79282 | 39646 ft | 529 kts | 108° |
| 2026-05-04 15:57 | -72.10490 | 78.02017 | 39631 ft | 529 kts | 108° |
| 2026-05-04 15:57 | -72.12740 | 78.24787 | 39628 ft | 529 kts | 108° |
| 2026-05-04 15:58 | -72.14951 | 78.47499 | 39638 ft | 528 kts | 108° |
| 2026-05-04 15:58 | -72.17143 | 78.70344 | 39625 ft | 528 kts | 107° |
| 2026-05-04 15:59 | -72.19306 | 78.93210 | 39631 ft | 526 kts | 107° |
| 2026-05-04 15:59 | -72.21423 | 79.15907 | 39631 ft | 527 kts | 107° |
| 2026-05-04 16:00 | -72.23534 | 79.38896 | 39622 ft | 527 kts | 107° |
| 2026-05-04 16:00 | -72.25613 | 79.61900 | 39633 ft | 527 kts | 107° |
| 2026-05-04 16:01 | -72.27670 | 79.84982 | 39621 ft | 528 kts | 107° |
| 2026-05-04 16:01 | -72.29703 | 80.08161 | 39624 ft | 528 kts | 106° |
| 2026-05-04 16:02 | -72.31708 | 80.31373 | 39628 ft | 528 kts | 106° |
| 2026-05-04 16:03 | -72.34656 | 80.66196 | 39620 ft | 526 kts | 105° |
| 2026-05-04 16:03 | -72.36593 | 80.89550 | 39627 ft | 527 kts | 105° |
| 2026-05-04 16:04 | -72.38488 | 81.12756 | 39617 ft | 526 kts | 105° |
| 2026-05-04 16:04 | -72.41293 | 81.47836 | 39626 ft | 527 kts | 105° |
| 2026-05-04 16:05 | -72.43135 | 81.71346 | 39615 ft | 528 kts | 105° |
| 2026-05-04 16:06 | -72.45842 | 82.06711 | 39623 ft | 528 kts | 104° |
| 2026-05-04 16:07 | -72.49347 | 82.53923 | 39613 ft | 527 kts | 104° |
| 2026-05-04 16:08 | -72.52743 | 83.01332 | 39607 ft | 526 kts | 103° |
| 2026-05-04 16:09 | -72.56818 | 83.60662 | 39605 ft | 527 kts | 103° |
| 2026-05-04 16:10 | -72.59964 | 84.08540 | 39601 ft | 528 kts | 103° |
| 2026-05-04 16:11 | -72.62993 | 84.56544 | 39602 ft | 526 kts | 102° |
| 2026-05-04 16:12 | -72.67301 | 85.28498 | 39600 ft | 526 kts | 102° |
| 2026-05-04 16:13 | -72.70035 | 85.76760 | 39594 ft | 526 kts | 101° |
| 2026-05-04 16:14 | -72.72656 | 86.25174 | 39582 ft | 525 kts | 101° |
| 2026-05-04 16:16 | -72.75762 | 86.85817 | 39581 ft | 525 kts | 100° |
| 2026-05-04 16:17 | -72.78672 | 87.46355 | 39579 ft | 524 kts | 100° |
| 2026-05-04 16:18 | -72.80880 | 87.95168 | 39581 ft | 525 kts | 99° |
| 2026-05-04 16:19 | -72.83463 | 88.56083 | 39581 ft | 524 kts | 99° |
| 2026-05-04 16:20 | -72.85865 | 89.17198 | 39581 ft | 524 kts | 98° |
| 2026-05-04 16:22 | -72.88089 | 89.78591 | 39576 ft | 524 kts | 98° |
| 2026-05-04 16:23 | -72.90506 | 90.52391 | 39570 ft | 523 kts | 97° |
| 2026-05-04 16:25 | -72.92538 | 91.22000 | 39565 ft | 523 kts | 96° |
| 2026-05-04 16:26 | -72.94721 | 92.08297 | 39561 ft | 523 kts | 96° |
| 2026-05-04 16:28 | -72.96057 | 92.70057 | 39558 ft | 522 kts | 95° |
| 2026-05-04 16:29 | -72.97614 | 93.56687 | 39567 ft | 522 kts | 94° |
| 2026-05-04 16:31 | -72.98498 | 94.18445 | 39564 ft | 522 kts | 94° |
| 2026-05-04 16:32 | -72.99314 | 94.92829 | 39562 ft | 523 kts | 93° |
| 2026-05-04 16:33 | -72.99711 | 95.42509 | 39555 ft | 523 kts | 93° |
| 2026-05-04 16:34 | -73.00211 | 95.79746 | 39549 ft | 523 kts | 94° |
| 2026-05-04 16:35 | -73.01041 | 96.54035 | 39548 ft | 522 kts | 92° |
| 2026-05-04 16:36 | -73.01217 | 96.91312 | 39575 ft | 523 kts | 92° |
| 2026-05-04 16:37 | -73.01317 | 97.28630 | 39554 ft | 522 kts | 92° |
| 2026-05-04 16:38 | -73.01348 | 97.78383 | 39559 ft | 523 kts | 91° |
| 2026-05-04 16:39 | -73.01216 | 98.40420 | 39559 ft | 523 kts | 91° |
| 2026-05-04 16:40 | -73.00976 | 98.90150 | 39586 ft | 523 kts | 90° |
| 2026-05-04 16:41 | -73.00482 | 99.52307 | 39582 ft | 523 kts | 89° |
| 2026-05-04 16:43 | -72.99484 | 100.14174 | 39580 ft | 523 kts | 88° |
| 2026-05-04 16:43 | -72.98561 | 100.51327 | 39577 ft | 523 kts | 86° |
| 2026-05-04 16:45 | -72.96239 | 101.25396 | 39571 ft | 522 kts | 85° |
| 2026-05-04 16:46 | -72.94099 | 101.86909 | 39570 ft | 523 kts | 85° |
| 2026-05-04 16:47 | -72.92257 | 102.35908 | 39577 ft | 523 kts | 84° |
| 2026-05-04 16:48 | -72.90298 | 102.84885 | 39578 ft | 522 kts | 84° |
| 2026-05-04 16:49 | -72.88228 | 103.33500 | 39566 ft | 522 kts | 83° |
| 2026-05-04 16:50 | -72.86040 | 103.82035 | 39563 ft | 522 kts | 83° |
| 2026-05-04 16:51 | -72.84319 | 104.18467 | 39571 ft | 522 kts | 83° |
| 2026-05-04 16:52 | -72.81958 | 104.66268 | 39561 ft | 522 kts | 82° |
| 2026-05-04 16:53 | -72.80085 | 105.02545 | 39562 ft | 522 kts | 82° |
| 2026-05-04 16:54 | -72.77492 | 105.50733 | 39568 ft | 522 kts | 81° |
| 2026-05-04 16:55 | -72.73391 | 106.22683 | 39554 ft | 522 kts | 81° |
| 2026-05-04 16:56 | -72.69771 | 106.82488 | 39550 ft | 521 kts | 80° |
| 2026-05-04 16:57 | -72.67518 | 107.18211 | 39551 ft | 522 kts | 80° |
| 2026-05-04 16:58 | -72.64411 | 107.65787 | 39556 ft | 523 kts | 79° |
| 2026-05-04 17:00 | -72.59543 | 108.36822 | 39544 ft | 523 kts | 78° |
| 2026-05-04 17:01 | -72.55285 | 108.95737 | 39544 ft | 522 kts | 78° |
| 2026-05-04 17:02 | -72.51771 | 109.42513 | 39552 ft | 523 kts | 77° |
| 2026-05-04 17:03 | -72.49053 | 109.77620 | 39539 ft | 523 kts | 77° |
| 2026-05-04 17:03 | -72.46269 | 110.12652 | 39546 ft | 523 kts | 77° |
| 2026-05-04 17:04 | -72.42465 | 110.59175 | 39548 ft | 523 kts | 76° |
| 2026-05-04 17:05 | -72.38578 | 111.05192 | 39528 ft | 521 kts | 76° |
| 2026-05-04 17:06 | -72.35589 | 111.39631 | 39539 ft | 521 kts | 75° |
| 2026-05-04 17:07 | -72.32887 | 111.70110 | 39527 ft | 521 kts | 75° |
| 2026-05-04 17:07 | -72.30473 | 111.96801 | 39539 ft | 521 kts | 74° |
| 2026-05-04 17:08 | -72.27335 | 112.30809 | 39527 ft | 521 kts | 74° |
| 2026-05-04 17:09 | -72.25186 | 112.53693 | 39538 ft | 521 kts | 74° |
| 2026-05-04 17:09 | -72.23027 | 112.76343 | 39526 ft | 520 kts | 73° |
| 2026-05-04 17:10 | -72.17540 | 113.32520 | 39517 ft | 521 kts | 73° |
| 2026-05-04 17:11 | -72.15285 | 113.55039 | 39523 ft | 522 kts | 73° |
| 2026-05-04 17:12 | -72.11853 | 113.88721 | 39517 ft | 523 kts | 72° |
| 2026-05-04 17:13 | -72.06391 | 114.40966 | 39544 ft | 523 kts | 72° |
| 2026-05-04 17:14 | -72.01636 | 114.85341 | 39542 ft | 520 kts | 72° |
| 2026-05-04 17:15 | -71.98212 | 115.18529 | 39566 ft | 522 kts | 72° |
| 2026-05-04 17:16 | -71.93667 | 115.63149 | 39571 ft | 520 kts | 72° |
| 2026-05-04 17:17 | -71.89087 | 116.07283 | 39577 ft | 519 kts | 72° |
| 2026-05-04 17:18 | -71.84422 | 116.51067 | 39583 ft | 521 kts | 71° |
| 2026-05-04 17:19 | -71.79626 | 116.94926 | 39571 ft | 522 kts | 71° |
| 2026-05-04 17:20 | -71.74726 | 117.38576 | 39578 ft | 522 kts | 70° |
| 2026-05-04 17:20 | -71.71001 | 117.71032 | 39582 ft | 521 kts | 70° |
| 2026-05-04 17:21 | -71.65925 | 118.14337 | 39572 ft | 521 kts | 69° |
| 2026-05-04 17:22 | -71.63373 | 118.35711 | 39584 ft | 521 kts | 69° |
| 2026-05-04 17:23 | -71.58162 | 118.78581 | 39539 ft | 522 kts | 69° |
| 2026-05-04 17:24 | -71.54414 | 119.08799 | 39539 ft | 522 kts | 68° |
| 2026-05-04 17:25 | -71.49055 | 119.51141 | 39549 ft | 521 kts | 68° |
| 2026-05-04 17:26 | -71.43599 | 119.93296 | 39581 ft | 520 kts | 68° |
| 2026-05-04 17:27 | -71.36644 | 120.45653 | 39580 ft | 521 kts | 67° |
| 2026-05-04 17:28 | -71.30996 | 120.87127 | 39572 ft | 521 kts | 66° |
| 2026-05-04 17:29 | -71.22303 | 121.49246 | 39577 ft | 521 kts | 65° |
| 2026-05-04 17:31 | -71.14928 | 122.00420 | 39575 ft | 521 kts | 65° |
| 2026-05-04 17:32 | -71.07398 | 122.51308 | 39573 ft | 522 kts | 64° |
| 2026-05-04 17:33 | -71.01264 | 122.91770 | 39565 ft | 522 kts | 64° |
| 2026-05-04 17:34 | -70.94985 | 123.32011 | 39567 ft | 522 kts | 63° |
| 2026-05-04 17:35 | -70.87013 | 123.81791 | 39570 ft | 523 kts | 63° |
| 2026-05-04 17:36 | -70.83781 | 124.01622 | 39565 ft | 523 kts | 62° |
| 2026-05-04 17:36 | -70.80518 | 124.21456 | 39577 ft | 524 kts | 62° |
| 2026-05-04 17:37 | -70.77230 | 124.41240 | 39565 ft | 524 kts | 62° |
| 2026-05-04 17:37 | -70.73926 | 124.60931 | 39571 ft | 524 kts | 62° |
| 2026-05-04 17:38 | -70.70592 | 124.80607 | 39573 ft | 524 kts | 61° |
| 2026-05-04 17:38 | -70.67267 | 125.00046 | 39563 ft | 524 kts | 61° |
| 2026-05-04 17:39 | -70.62205 | 125.29303 | 39571 ft | 525 kts | 60° |
| 2026-05-04 17:39 | -70.58800 | 125.48740 | 39563 ft | 525 kts | 60° |
| 2026-05-04 17:40 | -70.55373 | 125.68122 | 39582 ft | 526 kts | 60° |
| 2026-05-04 17:40 | -70.51920 | 125.87466 | 39588 ft | 527 kts | 60° |
| 2026-05-04 17:41 | -70.48443 | 126.06767 | 39576 ft | 527 kts | 59° |
| 2026-05-04 17:41 | -70.44948 | 126.26000 | 39586 ft | 527 kts | 59° |
| 2026-05-04 17:42 | -70.41423 | 126.45197 | 39582 ft | 526 kts | 59° |
| 2026-05-04 17:42 | -70.37889 | 126.64272 | 39577 ft | 526 kts | 59° |
| 2026-05-04 17:43 | -70.34355 | 126.83178 | 39590 ft | 526 kts | 59° |
| 2026-05-04 17:43 | -70.30784 | 127.02126 | 39577 ft | 526 kts | 58° |
| 2026-05-04 17:44 | -70.27191 | 127.20996 | 39585 ft | 526 kts | 58° |
| 2026-05-04 17:44 | -70.23574 | 127.39832 | 39585 ft | 527 kts | 58° |
| 2026-05-04 17:45 | -70.19928 | 127.58649 | 39587 ft | 528 kts | 57° |
| 2026-05-04 17:45 | -70.16257 | 127.77424 | 39593 ft | 528 kts | 57° |
| 2026-05-04 17:46 | -70.12574 | 127.96093 | 39581 ft | 528 kts | 57° |
| 2026-05-04 17:46 | -70.08872 | 128.14697 | 39592 ft | 528 kts | 57° |
| 2026-05-04 17:47 | -70.05146 | 128.33259 | 39587 ft | 528 kts | 57° |
| 2026-05-04 17:47 | -70.01416 | 128.51682 | 39583 ft | 527 kts | 56° |
| 2026-05-04 17:48 | -69.97653 | 128.70105 | 39594 ft | 528 kts | 56° |
| 2026-05-04 17:48 | -69.93866 | 128.88479 | 39582 ft | 529 kts | 56° |
| 2026-05-04 17:49 | -69.90053 | 129.06841 | 39587 ft | 529 kts | 56° |
| 2026-05-04 17:49 | -69.86225 | 129.25103 | 39593 ft | 528 kts | 55° |
| 2026-05-04 17:50 | -69.82414 | 129.43121 | 39581 ft | 528 kts | 55° |
| 2026-05-04 17:50 | -69.78550 | 129.61245 | 39593 ft | 528 kts | 55° |
| 2026-05-04 17:51 | -69.74673 | 129.79282 | 39585 ft | 527 kts | 55° |
| 2026-05-04 17:51 | -69.70787 | 129.97206 | 39586 ft | 527 kts | 55° |
| 2026-05-04 17:52 | -69.66874 | 130.15102 | 39594 ft | 527 kts | 54° |
| 2026-05-04 17:52 | -69.62970 | 130.32814 | 39577 ft | 528 kts | 54° |
| 2026-05-04 17:53 | -69.59020 | 130.50588 | 39572 ft | 529 kts | 54° |
| 2026-05-04 17:53 | -69.55046 | 130.68316 | 39583 ft | 529 kts | 54° |
| 2026-05-04 17:54 | -69.51049 | 130.86003 | 39574 ft | 529 kts | 54° |
| 2026-05-04 17:54 | -69.47040 | 131.03599 | 39576 ft | 529 kts | 53° |
| 2026-05-04 17:55 | -69.43031 | 131.21050 | 39583 ft | 530 kts | 53° |
| 2026-05-04 17:55 | -69.38970 | 131.38584 | 39571 ft | 530 kts | 53° |
| 2026-05-04 17:56 | -69.34895 | 131.56041 | 39582 ft | 529 kts | 53° |
| 2026-05-04 17:56 | -69.30832 | 131.73309 | 39578 ft | 529 kts | 53° |
| 2026-05-04 17:57 | -69.26738 | 131.90569 | 39574 ft | 529 kts | 52° |
| 2026-05-04 17:57 | -69.22622 | 132.07779 | 39585 ft | 530 kts | 52° |
| 2026-05-04 17:58 | -69.18479 | 132.24971 | 39573 ft | 530 kts | 52° |
| 2026-05-04 17:58 | -69.14327 | 132.42071 | 39579 ft | 531 kts | 52° |
| 2026-05-04 17:59 | -69.10851 | 132.56271 | 39586 ft | 531 kts | 52° |
| 2026-05-04 18:00 | -69.03870 | 132.84519 | 39578 ft | 530 kts | 52° |
| 2026-05-04 18:00 | -69.00365 | 132.98764 | 39586 ft | 531 kts | 52° |
| 2026-05-04 18:01 | -68.96193 | 133.15749 | 39575 ft | 531 kts | 52° |
| 2026-05-04 18:01 | -68.92024 | 133.32719 | 39580 ft | 531 kts | 52° |
| 2026-05-04 18:02 | -68.85780 | 133.57952 | 39579 ft | 531 kts | 52° |
| 2026-05-04 18:02 | -68.81579 | 133.74777 | 39579 ft | 531 kts | 52° |
| 2026-05-04 18:03 | -68.77363 | 133.91533 | 39588 ft | 531 kts | 51° |
| 2026-05-04 18:03 | -68.73126 | 134.08236 | 39575 ft | 532 kts | 51° |
| 2026-05-04 18:04 | -68.68870 | 134.24890 | 39586 ft | 531 kts | 51° |
| 2026-05-04 18:05 | -68.62489 | 134.49627 | 39577 ft | 531 kts | 51° |
| 2026-05-04 18:05 | -68.58199 | 134.66105 | 39586 ft | 531 kts | 51° |
| 2026-05-04 18:06 | -68.51743 | 134.90661 | 39579 ft | 531 kts | 50° |
| 2026-05-04 18:06 | -68.47417 | 135.06956 | 39585 ft | 531 kts | 50° |
| 2026-05-04 18:07 | -68.43064 | 135.23238 | 39588 ft | 531 kts | 50° |
| 2026-05-04 18:07 | -68.38703 | 135.39429 | 39578 ft | 531 kts | 50° |
| 2026-05-04 18:08 | -68.34358 | 135.55439 | 39591 ft | 531 kts | 49° |
| 2026-05-04 18:08 | -68.29969 | 135.71491 | 39584 ft | 531 kts | 49° |
| 2026-05-04 18:09 | -68.21133 | 136.03458 | 39591 ft | 531 kts | 49° |
| 2026-05-04 18:10 | -68.16690 | 136.19356 | 39576 ft | 531 kts | 49° |
| 2026-05-04 18:10 | -68.12228 | 136.35198 | 39581 ft | 531 kts | 48° |
| 2026-05-04 18:11 | -68.07787 | 136.50866 | 39584 ft | 531 kts | 48° |
| 2026-05-04 18:11 | -68.03312 | 136.66538 | 39575 ft | 531 kts | 48° |
| 2026-05-04 18:12 | -67.98810 | 136.82184 | 39587 ft | 531 kts | 47° |
| 2026-05-04 18:12 | -67.94296 | 136.97761 | 39576 ft | 531 kts | 47° |
| 2026-05-04 18:13 | -67.89760 | 137.13303 | 39573 ft | 531 kts | 47° |
| 2026-05-04 18:14 | -67.82924 | 137.36523 | 39580 ft | 532 kts | 47° |
| 2026-05-04 18:14 | -67.78376 | 137.51828 | 39572 ft | 531 kts | 47° |
| 2026-05-04 18:15 | -67.69188 | 137.82431 | 39577 ft | 532 kts | 46° |
| 2026-05-04 18:16 | -67.64569 | 137.97669 | 39577 ft | 532 kts | 46° |
| 2026-05-04 18:16 | -67.59940 | 138.12831 | 39587 ft | 532 kts | 46° |
| 2026-05-04 18:17 | -67.52962 | 138.35468 | 39577 ft | 532 kts | 46° |
| 2026-05-04 18:18 | -67.45998 | 138.57832 | 39584 ft | 531 kts | 45° |
| 2026-05-04 18:18 | -67.41328 | 138.72703 | 39595 ft | 531 kts | 45° |
| 2026-05-04 18:19 | -67.34280 | 138.94948 | 39587 ft | 531 kts | 45° |
| 2026-05-04 18:19 | -67.29571 | 139.09681 | 39598 ft | 531 kts | 45° |
| 2026-05-04 18:20 | -67.24847 | 139.24374 | 39594 ft | 531 kts | 45° |
| 2026-05-04 18:20 | -67.20119 | 139.38980 | 39590 ft | 530 kts | 45° |
| 2026-05-04 18:21 | -67.15364 | 139.53559 | 39601 ft | 530 kts | 45° |
| 2026-05-04 18:21 | -67.10635 | 139.67960 | 39591 ft | 530 kts | 44° |
| 2026-05-04 18:22 | -67.05867 | 139.82389 | 39597 ft | 530 kts | 44° |
| 2026-05-04 18:22 | -67.01045 | 139.96677 | 39599 ft | 530 kts | 43° |
| 2026-05-04 18:23 | -66.96167 | 140.10700 | 39592 ft | 529 kts | 43° |
| 2026-05-04 18:23 | -66.91208 | 140.24661 | 39604 ft | 530 kts | 42° |
| 2026-05-04 18:24 | -66.86231 | 140.38507 | 39596 ft | 530 kts | 42° |
| 2026-05-04 18:24 | -66.81245 | 140.52284 | 39599 ft | 529 kts | 42° |
| 2026-05-04 18:25 | -66.76266 | 140.65940 | 39609 ft | 524 kts | 41° |
| 2026-05-04 18:25 | -66.71302 | 140.79466 | 39603 ft | 523 kts | 41° |
| 2026-05-04 18:26 | -66.66363 | 140.92838 | 39610 ft | 524 kts | 41° |
| 2026-05-04 18:26 | -66.61385 | 141.06248 | 39613 ft | 524 kts | 41° |
| 2026-05-04 18:27 | -66.56409 | 141.19546 | 39604 ft | 523 kts | 41° |
| 2026-05-04 18:27 | -66.51396 | 141.32843 | 39616 ft | 523 kts | 41° |
| 2026-05-04 18:28 | -66.46392 | 141.46069 | 39611 ft | 523 kts | 40° |
| 2026-05-04 18:28 | -66.41410 | 141.59160 | 39609 ft | 523 kts | 40° |
| 2026-05-04 18:29 | -66.36356 | 141.72344 | 39620 ft | 523 kts | 40° |
| 2026-05-04 18:29 | -66.31316 | 141.85417 | 39609 ft | 523 kts | 40° |
| 2026-05-04 18:30 | -66.23761 | 142.04844 | 39622 ft | 522 kts | 40° |
| 2026-05-04 18:31 | -66.18694 | 142.17780 | 39611 ft | 522 kts | 40° |
| 2026-05-04 18:31 | -66.13618 | 142.30668 | 39620 ft | 522 kts | 39° |
| 2026-05-04 18:32 | -66.08541 | 142.43478 | 39622 ft | 522 kts | 39° |
| 2026-05-04 18:32 | -66.03446 | 142.56234 | 39613 ft | 523 kts | 39° |
| 2026-05-04 18:33 | -65.98327 | 142.68988 | 39629 ft | 523 kts | 39° |
| 2026-05-04 18:33 | -65.93250 | 142.81588 | 39617 ft | 523 kts | 39° |
| 2026-05-04 18:34 | -65.88111 | 142.94234 | 39622 ft | 524 kts | 39° |
| 2026-05-04 18:34 | -65.82959 | 143.06826 | 39629 ft | 524 kts | 39° |
| 2026-05-04 18:35 | -65.77791 | 143.19387 | 39617 ft | 523 kts | 39° |
| 2026-05-04 18:35 | -65.72622 | 143.31894 | 39628 ft | 524 kts | 38° |
| 2026-05-04 18:36 | -65.67446 | 143.44342 | 39628 ft | 524 kts | 38° |
| 2026-05-04 18:36 | -65.62281 | 143.56674 | 39621 ft | 524 kts | 38° |
| 2026-05-04 18:37 | -65.57085 | 143.69010 | 39634 ft | 524 kts | 38° |
| 2026-05-04 18:37 | -65.51871 | 143.81332 | 39626 ft | 524 kts | 38° |
| 2026-05-04 18:38 | -65.46661 | 143.93566 | 39629 ft | 523 kts | 38° |
| 2026-05-04 18:38 | -65.41418 | 144.05791 | 39635 ft | 525 kts | 38° |
| 2026-05-04 18:39 | -65.36171 | 144.17957 | 39624 ft | 524 kts | 38° |
| 2026-05-04 18:39 | -65.30978 | 144.29945 | 39637 ft | 524 kts | 37° |
| 2026-05-04 18:40 | -65.25685 | 144.42100 | 39631 ft | 524 kts | 37° |
| 2026-05-04 18:40 | -65.20413 | 144.54109 | 39631 ft | 524 kts | 37° |
| 2026-05-04 18:41 | -65.15134 | 144.66064 | 39632 ft | 524 kts | 37° |
| 2026-05-04 18:41 | -65.09848 | 144.77974 | 39629 ft | 523 kts | 37° |
| 2026-05-04 18:42 | -65.04520 | 144.89728 | 39634 ft | 523 kts | 36° |
| 2026-05-04 18:42 | -64.99164 | 145.01386 | 39634 ft | 523 kts | 36° |
| 2026-05-04 18:43 | -64.93792 | 145.12917 | 39632 ft | 522 kts | 36° |
| 2026-05-04 18:43 | -64.88354 | 145.24336 | 39640 ft | 522 kts | 35° |
| 2026-05-04 18:44 | -64.82949 | 145.35545 | 39633 ft | 521 kts | 35° |
| 2026-05-04 18:44 | -64.77492 | 145.46794 | 39639 ft | 521 kts | 34° |
| 2026-05-04 18:45 | -64.72032 | 145.57982 | 39643 ft | 521 kts | 34° |
| 2026-05-04 18:45 | -64.66572 | 145.69104 | 39633 ft | 521 kts | 34° |
| 2026-05-04 18:46 | -64.62011 | 145.78347 | 39645 ft | 521 kts | 34° |
| 2026-05-04 18:46 | -64.55644 | 145.91189 | 39642 ft | 520 kts | 34° |
| 2026-05-04 18:47 | -64.51055 | 146.00401 | 39638 ft | 520 kts | 34° |
| 2026-05-04 18:47 | -64.45556 | 146.11370 | 39649 ft | 521 kts | 34° |
| 2026-05-04 18:48 | -64.40109 | 146.22168 | 39645 ft | 521 kts | 34° |
| 2026-05-04 18:48 | -64.34584 | 146.33076 | 39643 ft | 520 kts | 34° |
| 2026-05-04 18:49 | -64.29057 | 146.43920 | 39654 ft | 521 kts | 33° |
| 2026-05-04 18:49 | -64.23533 | 146.54700 | 39644 ft | 521 kts | 33° |
| 2026-05-04 18:50 | -64.18007 | 146.65429 | 39651 ft | 521 kts | 33° |
| 2026-05-04 18:50 | -64.12452 | 146.76159 | 39656 ft | 521 kts | 33° |
| 2026-05-04 18:51 | -64.06915 | 146.86839 | 39647 ft | 521 kts | 34° |
| 2026-05-04 18:51 | -64.01448 | 146.97704 | 39659 ft | 523 kts | 34° |
| 2026-05-04 18:52 | -63.95996 | 147.08640 | 39656 ft | 522 kts | 34° |
| 2026-05-04 18:52 | -63.90597 | 147.19692 | 39651 ft | 523 kts | 35° |
| 2026-05-04 18:53 | -63.85204 | 147.30847 | 39635 ft | 523 kts | 35° |
| 2026-05-04 18:53 | -63.79856 | 147.41882 | 39622 ft | 524 kts | 35° |
| 2026-05-04 18:54 | -63.74453 | 147.52973 | 39635 ft | 524 kts | 35° |
| 2026-05-04 18:54 | -63.69055 | 147.64001 | 39678 ft | 524 kts | 35° |
| 2026-05-04 18:55 | -63.63638 | 147.75002 | 39719 ft | 524 kts | 35° |
| 2026-05-04 18:55 | -63.55530 | 147.91363 | 39777 ft | 524 kts | 35° |
| 2026-05-04 18:56 | -63.50097 | 148.02256 | 39801 ft | 524 kts | 34° |
| 2026-05-04 18:56 | -63.44666 | 148.13081 | 39816 ft | 523 kts | 34° |
| 2026-05-04 18:57 | -63.39203 | 148.23909 | 39820 ft | 523 kts | 34° |
| 2026-05-04 18:57 | -63.33746 | 148.34675 | 39813 ft | 523 kts | 34° |
| 2026-05-04 18:58 | -63.28319 | 148.45323 | 39825 ft | 523 kts | 34° |
| 2026-05-04 18:58 | -63.22866 | 148.55965 | 39822 ft | 521 kts | 34° |
| 2026-05-04 18:59 | -63.17406 | 148.66566 | 39821 ft | 521 kts | 34° |
| 2026-05-04 18:59 | -63.11944 | 148.77118 | 39833 ft | 521 kts | 33° |
| 2026-05-04 19:00 | -63.06469 | 148.87637 | 39823 ft | 521 kts | 33° |
| 2026-05-04 19:00 | -63.01024 | 148.98022 | 39832 ft | 521 kts | 33° |
| 2026-05-04 19:01 | -62.95530 | 149.08440 | 39837 ft | 521 kts | 33° |
| 2026-05-04 19:01 | -62.90040 | 149.18787 | 39828 ft | 520 kts | 33° |
| 2026-05-04 19:02 | -62.84543 | 149.29086 | 39843 ft | 520 kts | 33° |
| 2026-05-04 19:02 | -62.79026 | 149.39370 | 39836 ft | 520 kts | 33° |
| 2026-05-04 19:03 | -62.73516 | 149.49583 | 39839 ft | 519 kts | 33° |
| 2026-05-04 19:03 | -62.68001 | 149.59757 | 39849 ft | 519 kts | 33° |
| 2026-05-04 19:04 | -62.62471 | 149.69906 | 39838 ft | 519 kts | 32° |
| 2026-05-04 19:04 | -62.56987 | 149.79920 | 39850 ft | 519 kts | 32° |
| 2026-05-04 19:05 | -62.51441 | 149.89999 | 39851 ft | 519 kts | 32° |
| 2026-05-04 19:05 | -62.45916 | 149.99990 | 39845 ft | 518 kts | 32° |
| 2026-05-04 19:06 | -62.40362 | 150.09980 | 39858 ft | 518 kts | 32° |
| 2026-05-04 19:06 | -62.34812 | 150.19911 | 39856 ft | 518 kts | 32° |
| 2026-05-04 19:07 | -62.29257 | 150.29811 | 39853 ft | 518 kts | 32° |
| 2026-05-04 19:07 | -62.23741 | 150.39584 | 39865 ft | 518 kts | 32° |
| 2026-05-04 19:08 | -62.18166 | 150.49416 | 39859 ft | 518 kts | 32° |
| 2026-05-04 19:08 | -62.12611 | 150.59169 | 39861 ft | 518 kts | 32° |
| 2026-05-04 19:09 | -62.07022 | 150.68928 | 39867 ft | 519 kts | 31° |
| 2026-05-04 19:09 | -62.01434 | 150.78638 | 39863 ft | 519 kts | 31° |
| 2026-05-04 19:10 | -61.95830 | 150.88331 | 39874 ft | 518 kts | 31° |
| 2026-05-04 19:10 | -61.90223 | 150.97977 | 39871 ft | 518 kts | 31° |
| 2026-05-04 19:11 | -61.84618 | 151.07577 | 39870 ft | 518 kts | 31° |
| 2026-05-04 19:11 | -61.79046 | 151.17073 | 39882 ft | 519 kts | 31° |
| 2026-05-04 19:12 | -61.70589 | 151.31401 | 39874 ft | 519 kts | 31° |
| 2026-05-04 19:13 | -61.64951 | 151.40900 | 39887 ft | 519 kts | 30° |
| 2026-05-04 19:13 | -61.59316 | 151.50342 | 39878 ft | 519 kts | 30° |
| 2026-05-04 19:14 | -61.53654 | 151.59781 | 39886 ft | 518 kts | 30° |
| 2026-05-04 19:14 | -61.47990 | 151.69181 | 39890 ft | 519 kts | 30° |
| 2026-05-04 19:15 | -61.42368 | 151.78469 | 39881 ft | 518 kts | 30° |
| 2026-05-04 19:15 | -61.36702 | 151.87783 | 39895 ft | 518 kts | 30° |
| 2026-05-04 19:16 | -61.31041 | 151.97046 | 39891 ft | 518 kts | 30° |
| 2026-05-04 19:16 | -61.25366 | 152.06292 | 39887 ft | 519 kts | 30° |
| 2026-05-04 19:17 | -61.19660 | 152.15540 | 39902 ft | 519 kts | 30° |
| 2026-05-04 19:17 | -61.13967 | 152.24723 | 39895 ft | 519 kts | 30° |
| 2026-05-04 19:18 | -61.08267 | 152.33875 | 39899 ft | 518 kts | 30° |
| 2026-05-04 19:18 | -61.02563 | 152.42993 | 39908 ft | 518 kts | 30° |
| 2026-05-04 19:19 | -60.96852 | 152.52079 | 39897 ft | 518 kts | 30° |
| 2026-05-04 19:19 | -60.91166 | 152.61082 | 39909 ft | 518 kts | 29° |
| 2026-05-04 19:20 | -60.85447 | 152.70095 | 39911 ft | 518 kts | 29° |
| 2026-05-04 19:20 | -60.79730 | 152.79066 | 39904 ft | 517 kts | 29° |
| 2026-05-04 19:21 | -60.73989 | 152.88028 | 39917 ft | 519 kts | 29° |
| 2026-05-04 19:21 | -60.68236 | 152.96971 | 39912 ft | 519 kts | 29° |
| 2026-05-04 19:22 | -60.62495 | 153.05858 | 39914 ft | 518 kts | 29° |
| 2026-05-04 19:22 | -60.56782 | 153.14656 | 39924 ft | 518 kts | 29° |
| 2026-05-04 19:23 | -60.51025 | 153.23483 | 39914 ft | 518 kts | 28° |
| 2026-05-04 19:23 | -60.45261 | 153.32281 | 39924 ft | 518 kts | 28° |
| 2026-05-04 19:24 | -60.39509 | 153.41022 | 39927 ft | 518 kts | 28° |
| 2026-05-04 19:24 | -60.33733 | 153.49758 | 39921 ft | 517 kts | 28° |
| 2026-05-04 19:25 | -60.27998 | 153.58390 | 39937 ft | 517 kts | 28° |
| 2026-05-04 19:25 | -60.22227 | 153.67041 | 39941 ft | 517 kts | 28° |
| 2026-05-04 19:26 | -60.16465 | 153.75643 | 39929 ft | 516 kts | 28° |
| 2026-05-04 19:26 | -60.10671 | 153.84246 | 39942 ft | 517 kts | 28° |
| 2026-05-04 19:27 | -60.04875 | 153.92817 | 39947 ft | 517 kts | 28° |
| 2026-05-04 19:27 | -59.99089 | 154.01378 | 39936 ft | 516 kts | 28° |
| 2026-05-04 19:28 | -59.93315 | 154.09901 | 39951 ft | 517 kts | 28° |
| 2026-05-04 19:28 | -59.87576 | 154.18350 | 39951 ft | 517 kts | 28° |
| 2026-05-04 19:29 | -59.81785 | 154.26846 | 39946 ft | 516 kts | 28° |
| 2026-05-04 19:29 | -59.76001 | 154.35295 | 39959 ft | 516 kts | 28° |
| 2026-05-04 19:30 | -59.70203 | 154.43727 | 39951 ft | 516 kts | 28° |
| 2026-05-04 19:30 | -59.64421 | 154.52098 | 39957 ft | 516 kts | 28° |
| 2026-05-04 19:31 | -59.58641 | 154.60430 | 39965 ft | 514 kts | 27° |
| 2026-05-04 19:31 | -59.52848 | 154.68746 | 39953 ft | 514 kts | 27° |
| 2026-05-04 19:32 | -59.47067 | 154.77006 | 39966 ft | 514 kts | 27° |
| 2026-05-04 19:32 | -59.41272 | 154.85251 | 39965 ft | 514 kts | 27° |
| 2026-05-04 19:33 | -59.35506 | 154.93422 | 39964 ft | 513 kts | 27° |
| 2026-05-04 19:33 | -59.29714 | 155.01595 | 39974 ft | 513 kts | 27° |
| 2026-05-04 19:34 | -59.23908 | 155.09749 | 39965 ft | 513 kts | 27° |
| 2026-05-04 19:34 | -59.19098 | 155.16478 | 39976 ft | 513 kts | 27° |
| 2026-05-04 19:35 | -59.13287 | 155.24577 | 39977 ft | 513 kts | 27° |
| 2026-05-04 19:35 | -59.06536 | 155.33944 | 39974 ft | 512 kts | 27° |
| 2026-05-04 19:36 | -59.01660 | 155.40679 | 39985 ft | 512 kts | 27° |
| 2026-05-04 19:36 | -58.95849 | 155.48675 | 39978 ft | 512 kts | 27° |
| 2026-05-04 19:37 | -58.90036 | 155.56641 | 39983 ft | 512 kts | 27° |
| 2026-05-04 19:37 | -58.84254 | 155.64535 | 39987 ft | 510 kts | 27° |
| 2026-05-04 19:38 | -58.78444 | 155.72429 | 39983 ft | 510 kts | 27° |
| 2026-05-04 19:38 | -58.72643 | 155.80277 | 39995 ft | 510 kts | 27° |
| 2026-05-04 19:39 | -58.66838 | 155.88104 | 39985 ft | 509 kts | 27° |
| 2026-05-04 19:39 | -58.61031 | 155.95895 | 39994 ft | 509 kts | 27° |
| 2026-05-04 19:40 | -58.55222 | 156.03658 | 40000 ft | 509 kts | 26° |
| 2026-05-04 19:40 | -58.49454 | 156.11335 | 39996 ft | 508 kts | 26° |
| 2026-05-04 19:41 | -58.43636 | 156.19049 | 40012 ft | 507 kts | 26° |
| 2026-05-04 19:41 | -58.37838 | 156.26703 | 40001 ft | 507 kts | 26° |
| 2026-05-04 19:42 | -58.32035 | 156.34333 | 40009 ft | 507 kts | 26° |
| 2026-05-04 19:42 | -58.26218 | 156.41951 | 40016 ft | 507 kts | 26° |
| 2026-05-04 19:43 | -58.20430 | 156.49499 | 40005 ft | 508 kts | 26° |
| 2026-05-04 19:43 | -58.14569 | 156.57109 | 40018 ft | 508 kts | 26° |
| 2026-05-04 19:44 | -58.08758 | 156.64627 | 40018 ft | 508 kts | 26° |
| 2026-05-04 19:44 | -58.02922 | 156.72148 | 40013 ft | 508 kts | 26° |
| 2026-05-04 19:45 | -57.97076 | 156.79650 | 40025 ft | 505 kts | 26° |
| 2026-05-04 19:45 | -57.91265 | 156.87080 | 40014 ft | 505 kts | 26° |
| 2026-05-04 19:46 | -57.85457 | 156.94471 | 40028 ft | 507 kts | 26° |
| 2026-05-04 19:46 | -57.79622 | 157.01871 | 40028 ft | 506 kts | 26° |
| 2026-05-04 19:47 | -57.73786 | 157.09243 | 40023 ft | 506 kts | 26° |
| 2026-05-04 19:47 | -57.67945 | 157.16592 | 40036 ft | 506 kts | 26° |
| 2026-05-04 19:48 | -57.62090 | 157.23928 | 40029 ft | 506 kts | 25° |
| 2026-05-04 19:48 | -57.56245 | 157.31224 | 40033 ft | 506 kts | 25° |
| 2026-05-04 19:49 | -57.50375 | 157.38520 | 40042 ft | 507 kts | 25° |
| 2026-05-04 19:49 | -57.44511 | 157.45784 | 40031 ft | 507 kts | 25° |
| 2026-05-04 19:50 | -57.38656 | 157.53007 | 40043 ft | 507 kts | 25° |
| 2026-05-04 19:50 | -57.32748 | 157.60264 | 40043 ft | 507 kts | 25° |
| 2026-05-04 19:51 | -57.26900 | 157.67423 | 40040 ft | 506 kts | 25° |
| 2026-05-04 19:51 | -57.21035 | 157.74575 | 40050 ft | 506 kts | 25° |
| 2026-05-04 19:52 | -57.15158 | 157.81712 | 40039 ft | 505 kts | 25° |
| 2026-05-04 19:52 | -57.09285 | 157.88818 | 40053 ft | 505 kts | 25° |
| 2026-05-04 19:53 | -57.03396 | 157.95880 | 40053 ft | 504 kts | 24° |
| 2026-05-04 19:53 | -56.97419 | 158.02586 | 40048 ft | 503 kts | 22° |
| 2026-05-04 19:54 | -56.91399 | 158.09083 | 40061 ft | 502 kts | 22° |
| 2026-05-04 19:54 | -56.85408 | 158.15427 | 40055 ft | 500 kts | 21° |
| 2026-05-04 19:55 | -56.79364 | 158.21775 | 40058 ft | 500 kts | 21° |
| 2026-05-04 19:55 | -56.73319 | 158.28098 | 40067 ft | 500 kts | 21° |
| 2026-05-04 19:56 | -56.67281 | 158.34391 | 40057 ft | 500 kts | 21° |
| 2026-05-04 19:56 | -56.61277 | 158.40627 | 40068 ft | 500 kts | 21° |
| 2026-05-04 19:57 | -56.55235 | 158.46879 | 40071 ft | 500 kts | 21° |
| 2026-05-04 19:57 | -56.49182 | 158.53121 | 40063 ft | 499 kts | 21° |
| 2026-05-04 19:58 | -56.43128 | 158.59339 | 40077 ft | 500 kts | 21° |
| 2026-05-04 19:58 | -56.37085 | 158.65523 | 40072 ft | 499 kts | 21° |
| 2026-05-04 19:59 | -56.31079 | 158.71648 | 40077 ft | 499 kts | 21° |
| 2026-05-04 19:59 | -56.24986 | 158.77839 | 40081 ft | 499 kts | 21° |
| 2026-05-04 20:00 | -56.18928 | 158.83970 | 40079 ft | 499 kts | 21° |
| 2026-05-04 20:00 | -56.12876 | 158.90074 | 40085 ft | 499 kts | 21° |
| 2026-05-04 20:01 | -56.06864 | 158.96115 | 40086 ft | 499 kts | 21° |
| 2026-05-04 20:01 | -56.00800 | 159.02187 | 40084 ft | 499 kts | 20° |
| 2026-05-04 20:02 | -55.94767 | 159.08210 | 40096 ft | 496 kts | 20° |
| 2026-05-04 20:02 | -55.88720 | 159.14218 | 40085 ft | 496 kts | 20° |
| 2026-05-04 20:03 | -55.82676 | 159.20203 | 40096 ft | 496 kts | 20° |
| 2026-05-04 20:03 | -55.76657 | 159.26141 | 40099 ft | 498 kts | 20° |
| 2026-05-04 20:04 | -55.70603 | 159.32096 | 40091 ft | 497 kts | 20° |
| 2026-05-04 20:04 | -55.64568 | 159.38011 | 40106 ft | 497 kts | 20° |
| 2026-05-04 20:05 | -55.58488 | 159.43947 | 40099 ft | 497 kts | 20° |
| 2026-05-04 20:05 | -55.52433 | 159.49838 | 40102 ft | 497 kts | 20° |
| 2026-05-04 20:06 | -55.46368 | 159.55717 | 40112 ft | 497 kts | 20° |
| 2026-05-04 20:06 | -55.40300 | 159.61580 | 40104 ft | 497 kts | 20° |
| 2026-05-04 20:07 | -55.34282 | 159.67373 | 40114 ft | 496 kts | 20° |
| 2026-05-04 20:07 | -55.28222 | 159.73188 | 40112 ft | 495 kts | 20° |
| 2026-05-04 20:08 | -55.22173 | 159.78968 | 40111 ft | 495 kts | 20° |
| 2026-05-04 20:08 | -55.16130 | 159.84727 | 40123 ft | 495 kts | 20° |
| 2026-05-04 20:09 | -55.10074 | 159.90476 | 40115 ft | 493 kts | 20° |
| 2026-05-04 20:09 | -55.04052 | 159.96193 | 40122 ft | 494 kts | 20° |
| 2026-05-04 20:10 | -54.98129 | 160.02137 | 40129 ft | 497 kts | 21° |
| 2026-05-04 20:10 | -54.92158 | 160.08300 | 40122 ft | 498 kts | 22° |
| 2026-05-04 20:11 | -54.86219 | 160.14518 | 40134 ft | 498 kts | 22° |
| 2026-05-04 20:11 | -54.80283 | 160.20738 | 40131 ft | 497 kts | 22° |
| 2026-05-04 20:12 | -54.74403 | 160.26883 | 40131 ft | 496 kts | 22° |
| 2026-05-04 20:12 | -54.68491 | 160.33035 | 40143 ft | 496 kts | 22° |
| 2026-05-04 20:13 | -54.62564 | 160.39181 | 40134 ft | 496 kts | 22° |
| 2026-05-04 20:13 | -54.56645 | 160.45302 | 40142 ft | 496 kts | 22° |
| 2026-05-04 20:14 | -54.50723 | 160.51401 | 40148 ft | 496 kts | 22° |
| 2026-05-04 20:14 | -54.44822 | 160.57459 | 40139 ft | 495 kts | 21° |
| 2026-05-04 20:15 | -54.38933 | 160.63483 | 40152 ft | 495 kts | 21° |
| 2026-05-04 20:15 | -54.32999 | 160.69533 | 40151 ft | 497 kts | 21° |
| 2026-05-04 20:16 | -54.27044 | 160.75585 | 40148 ft | 496 kts | 21° |
| 2026-05-04 20:16 | -54.21095 | 160.81609 | 40162 ft | 497 kts | 21° |
| 2026-05-04 20:17 | -54.15141 | 160.87619 | 40154 ft | 496 kts | 21° |
| 2026-05-04 20:17 | -54.09243 | 160.93553 | 40157 ft | 496 kts | 21° |
| 2026-05-04 20:18 | -54.03292 | 160.99519 | 40167 ft | 496 kts | 21° |
| 2026-05-04 20:18 | -53.97284 | 161.05522 | 40163 ft | 494 kts | 21° |
| 2026-05-04 20:19 | -53.91401 | 161.11382 | 40164 ft | 494 kts | 21° |
| 2026-05-04 20:19 | -53.85448 | 161.17290 | 40176 ft | 495 kts | 21° |
| 2026-05-04 20:20 | -53.79502 | 161.23172 | 40168 ft | 494 kts | 21° |
| 2026-05-04 20:20 | -53.73565 | 161.29024 | 40172 ft | 496 kts | 21° |
| 2026-05-04 20:21 | -53.67592 | 161.34893 | 40184 ft | 496 kts | 21° |
| 2026-05-04 20:21 | -53.58645 | 161.43652 | 40179 ft | 496 kts | 21° |
| 2026-05-04 20:22 | -53.52708 | 161.49438 | 40189 ft | 496 kts | 21° |
| 2026-05-04 20:22 | -53.46736 | 161.55240 | 40181 ft | 496 kts | 21° |
| 2026-05-04 20:23 | -53.40770 | 161.61017 | 40190 ft | 495 kts | 21° |
| 2026-05-04 20:23 | -53.34802 | 161.66777 | 40193 ft | 494 kts | 21° |
| 2026-05-04 20:24 | -53.28845 | 161.72507 | 40187 ft | 494 kts | 21° |
| 2026-05-04 20:24 | -53.23890 | 161.77258 | 40201 ft | 496 kts | 21° |
| 2026-05-04 20:25 | -53.17892 | 161.82993 | 40211 ft | 495 kts | 21° |
| 2026-05-04 20:25 | -53.11926 | 161.88682 | 40203 ft | 494 kts | 21° |
| 2026-05-04 20:26 | -53.05936 | 161.94371 | 40213 ft | 495 kts | 21° |
| 2026-05-04 20:26 | -53.00015 | 162.00188 | 40216 ft | 495 kts | 23° |
| 2026-05-04 20:27 | -52.94124 | 162.06223 | 40209 ft | 497 kts | 24° |
| 2026-05-04 20:27 | -52.88272 | 162.12324 | 40223 ft | 498 kts | 24° |
| 2026-05-04 20:28 | -52.82417 | 162.18449 | 40221 ft | 496 kts | 24° |
| 2026-05-04 20:28 | -52.76608 | 162.24511 | 40222 ft | 497 kts | 24° |
| 2026-05-04 20:29 | -52.70756 | 162.30596 | 40232 ft | 497 kts | 24° |
| 2026-05-04 20:29 | -52.64916 | 162.36650 | 40222 ft | 495 kts | 24° |
| 2026-05-04 20:30 | -52.59078 | 162.42680 | 40233 ft | 496 kts | 24° |
| 2026-05-04 20:30 | -52.53226 | 162.48706 | 40238 ft | 496 kts | 24° |
| 2026-05-04 20:31 | -52.47380 | 162.54707 | 40230 ft | 495 kts | 24° |
| 2026-05-04 20:31 | -52.41523 | 162.60699 | 40244 ft | 496 kts | 24° |
| 2026-05-04 20:32 | -52.35663 | 162.66678 | 40242 ft | 496 kts | 24° |
| 2026-05-04 20:32 | -52.29807 | 162.72633 | 40240 ft | 495 kts | 24° |
| 2026-05-04 20:33 | -52.23989 | 162.78529 | 40254 ft | 495 kts | 24° |
| 2026-05-04 20:33 | -52.18130 | 162.84447 | 40244 ft | 497 kts | 24° |
| 2026-05-04 20:34 | -52.12249 | 162.90371 | 40254 ft | 497 kts | 24° |
| 2026-05-04 20:34 | -52.06364 | 162.96281 | 40260 ft | 497 kts | 24° |
| 2026-05-04 20:35 | -52.00470 | 163.02181 | 40251 ft | 497 kts | 24° |
| 2026-05-04 20:35 | -51.94578 | 163.08055 | 40265 ft | 496 kts | 24° |
| 2026-05-04 20:36 | -51.88684 | 163.13919 | 40263 ft | 498 kts | 25° |
| 2026-05-04 20:36 | -51.82854 | 163.19703 | 40263 ft | 497 kts | 25° |
| 2026-05-04 20:37 | -51.76901 | 163.25588 | 40274 ft | 499 kts | 24° |
| 2026-05-04 20:37 | -51.70986 | 163.31418 | 40266 ft | 498 kts | 24° |
| 2026-05-04 20:38 | -51.65079 | 163.37222 | 40275 ft | 498 kts | 24° |
| 2026-05-04 20:38 | -51.59143 | 163.43034 | 40281 ft | 498 kts | 24° |
| 2026-05-04 20:39 | -51.53216 | 163.48821 | 40273 ft | 498 kts | 24° |
| 2026-05-04 20:39 | -51.47293 | 163.54587 | 40287 ft | 498 kts | 24° |
| 2026-05-04 20:40 | -51.41349 | 163.60354 | 40282 ft | 498 kts | 24° |
| 2026-05-04 20:40 | -51.35452 | 163.66059 | 40286 ft | 498 kts | 24° |
| 2026-05-04 20:41 | -51.29510 | 163.71789 | 40296 ft | 498 kts | 24° |
| 2026-05-04 20:41 | -51.23569 | 163.77502 | 40286 ft | 499 kts | 24° |
| 2026-05-04 20:42 | -51.17614 | 163.83209 | 40298 ft | 499 kts | 24° |
| 2026-05-04 20:42 | -51.11656 | 163.88904 | 40302 ft | 499 kts | 24° |
| 2026-05-04 20:43 | -51.05689 | 163.94591 | 40294 ft | 500 kts | 25° |
| 2026-05-04 20:43 | -50.99811 | 164.00425 | 40308 ft | 501 kts | 26° |
| 2026-05-04 20:44 | -50.93920 | 164.06430 | 40305 ft | 503 kts | 27° |
| 2026-05-04 20:44 | -50.88064 | 164.12510 | 40307 ft | 503 kts | 27° |
| 2026-05-04 20:45 | -50.82216 | 164.18608 | 40318 ft | 504 kts | 27° |
| 2026-05-04 20:45 | -50.76360 | 164.24702 | 40309 ft | 505 kts | 27° |
| 2026-05-04 20:46 | -50.70493 | 164.30791 | 40320 ft | 504 kts | 27° |
| 2026-05-04 20:46 | -50.64617 | 164.36868 | 40324 ft | 505 kts | 27° |
| 2026-05-04 20:47 | -50.58776 | 164.42892 | 40317 ft | 504 kts | 27° |
| 2026-05-04 20:47 | -50.52900 | 164.48932 | 40330 ft | 504 kts | 27° |
| 2026-05-04 20:48 | -50.46989 | 164.54990 | 40328 ft | 504 kts | 27° |
| 2026-05-04 20:48 | -50.41118 | 164.60989 | 40328 ft | 504 kts | 27° |
| 2026-05-04 20:49 | -50.35265 | 164.66951 | 40340 ft | 504 kts | 27° |
| 2026-05-04 20:49 | -50.29385 | 164.72922 | 40331 ft | 505 kts | 27° |
| 2026-05-04 20:50 | -50.23483 | 164.78899 | 40340 ft | 505 kts | 27° |
| 2026-05-04 20:50 | -50.17587 | 164.84852 | 40347 ft | 505 kts | 27° |
| 2026-05-04 20:51 | -50.11679 | 164.90799 | 40338 ft | 505 kts | 27° |
| 2026-05-04 20:51 | -50.05770 | 164.96727 | 40351 ft | 506 kts | 27° |
| 2026-05-04 20:52 | -49.99857 | 165.02645 | 40351 ft | 505 kts | 27° |
| 2026-05-04 20:52 | -49.93936 | 165.08549 | 40347 ft | 505 kts | 27° |
| 2026-05-04 20:53 | -49.88058 | 165.14397 | 40361 ft | 505 kts | 28° |
| 2026-05-04 20:53 | -49.82141 | 165.20267 | 40355 ft | 505 kts | 27° |
| 2026-05-04 20:54 | -49.76213 | 165.26130 | 40359 ft | 505 kts | 27° |
| 2026-05-04 20:54 | -49.70271 | 165.31989 | 40368 ft | 505 kts | 27° |
| 2026-05-04 20:55 | -49.64343 | 165.37817 | 40359 ft | 505 kts | 27° |
| 2026-05-04 20:55 | -49.58409 | 165.43633 | 40371 ft | 505 kts | 27° |
| 2026-05-04 20:56 | -49.52469 | 165.49437 | 40374 ft | 506 kts | 27° |
| 2026-05-04 20:56 | -49.46567 | 165.55191 | 40367 ft | 505 kts | 27° |
| 2026-05-04 20:57 | -49.40595 | 165.60994 | 40381 ft | 505 kts | 27° |
| 2026-05-04 20:57 | -49.34648 | 165.66754 | 40377 ft | 505 kts | 27° |
| 2026-05-04 20:58 | -49.28733 | 165.72468 | 40378 ft | 505 kts | 27° |
| 2026-05-04 20:58 | -49.22780 | 165.78203 | 40389 ft | 505 kts | 27° |
| 2026-05-04 20:59 | -49.16844 | 165.83904 | 40380 ft | 504 kts | 27° |
| 2026-05-04 20:59 | -49.10887 | 165.89609 | 40389 ft | 504 kts | 27° |
| 2026-05-04 21:00 | -49.04957 | 165.95319 | 40396 ft | 505 kts | 28° |
| 2026-05-04 21:00 | -48.99104 | 166.01167 | 40385 ft | 506 kts | 29° |
| 2026-05-04 21:01 | -48.93256 | 166.07108 | 40399 ft | 507 kts | 30° |
| 2026-05-04 21:01 | -48.87427 | 166.13141 | 40397 ft | 507 kts | 30° |
| 2026-05-04 21:02 | -48.81610 | 166.19190 | 40394 ft | 507 kts | 30° |
| 2026-05-04 21:02 | -48.75783 | 166.25243 | 40407 ft | 506 kts | 30° |
| 2026-05-04 21:03 | -48.69957 | 166.31274 | 40398 ft | 506 kts | 30° |
| 2026-05-04 21:03 | -48.64129 | 166.37289 | 40406 ft | 506 kts | 30° |
| 2026-05-04 21:04 | -48.58303 | 166.43284 | 40412 ft | 506 kts | 30° |
| 2026-05-04 21:04 | -48.52503 | 166.49237 | 40402 ft | 506 kts | 30° |
| 2026-05-04 21:05 | -48.46688 | 166.55188 | 40415 ft | 507 kts | 30° |
| 2026-05-04 21:05 | -48.40860 | 166.61134 | 40414 ft | 507 kts | 30° |
| 2026-05-04 21:06 | -48.35019 | 166.67079 | 40410 ft | 506 kts | 30° |
| 2026-05-04 21:06 | -48.29164 | 166.73019 | 40422 ft | 507 kts | 30° |
| 2026-05-04 21:07 | -48.23309 | 166.78944 | 40417 ft | 507 kts | 30° |
| 2026-05-04 21:07 | -48.17462 | 166.84843 | 40419 ft | 507 kts | 30° |
| 2026-05-04 21:08 | -48.11598 | 166.90743 | 40429 ft | 507 kts | 30° |
| 2026-05-04 21:08 | -48.05729 | 166.96632 | 40418 ft | 508 kts | 30° |
| 2026-05-04 21:09 | -47.99890 | 167.02475 | 40420 ft | 508 kts | 30° |
| 2026-05-04 21:09 | -47.94003 | 167.08347 | 40420 ft | 509 kts | 30° |
| 2026-05-04 21:10 | -47.88124 | 167.14198 | 40424 ft | 509 kts | 30° |
| 2026-05-04 21:10 | -47.82226 | 167.20051 | 40426 ft | 509 kts | 30° |
| 2026-05-04 21:11 | -47.77273 | 167.24954 | 40425 ft | 510 kts | 30° |
| 2026-05-04 21:11 | -47.71369 | 167.30782 | 40430 ft | 510 kts | 30° |
| 2026-05-04 21:12 | -47.65461 | 167.36599 | 40430 ft | 510 kts | 30° |
| 2026-05-04 21:12 | -47.59579 | 167.42375 | 40429 ft | 510 kts | 30° |
| 2026-05-04 21:13 | -47.53665 | 167.48166 | 40440 ft | 510 kts | 30° |
| 2026-05-04 21:13 | -47.47732 | 167.53958 | 40430 ft | 510 kts | 30° |
| 2026-05-04 21:14 | -47.41794 | 167.59740 | 40437 ft | 511 kts | 30° |
| 2026-05-04 21:14 | -47.35861 | 167.65501 | 40442 ft | 511 kts | 30° |
| 2026-05-04 21:15 | -47.29926 | 167.71249 | 40433 ft | 510 kts | 30° |
| 2026-05-04 21:15 | -47.23967 | 167.77005 | 40446 ft | 511 kts | 30° |
| 2026-05-04 21:16 | -47.18030 | 167.82724 | 40441 ft | 511 kts | 30° |
| 2026-05-04 21:16 | -47.12107 | 167.88412 | 40440 ft | 511 kts | 30° |
| 2026-05-04 21:17 | -47.06143 | 167.94125 | 40453 ft | 512 kts | 30° |
| 2026-05-04 21:17 | -47.00179 | 167.99829 | 40461 ft | 512 kts | 30° |
| 2026-05-04 21:18 | -46.94191 | 168.05544 | 40449 ft | 516 kts | 30° |
| 2026-05-04 21:18 | -46.88178 | 168.11279 | 40459 ft | 515 kts | 30° |
| 2026-05-04 21:19 | -46.82173 | 168.16990 | 40460 ft | 516 kts | 30° |
| 2026-05-04 21:19 | -46.76182 | 168.22672 | 40452 ft | 515 kts | 30° |
| 2026-05-04 21:20 | -46.70127 | 168.28399 | 40464 ft | 516 kts | 30° |
| 2026-05-04 21:20 | -46.64381 | 168.34562 | 40412 ft | 520 kts | 41° |
| 2026-05-04 21:21 | -46.59458 | 168.42330 | 40467 ft | 523 kts | 47° |
| 2026-05-04 21:21 | -46.54900 | 168.50597 | 40452 ft | 524 kts | 51° |
| 2026-05-04 21:22 | -46.50671 | 168.59249 | 40464 ft | 526 kts | 53° |
| 2026-05-04 21:22 | -46.46579 | 168.67981 | 40460 ft | 526 kts | 54° |
| 2026-05-04 21:23 | -46.42472 | 168.76761 | 40456 ft | 526 kts | 54° |
| 2026-05-04 21:23 | -46.38345 | 168.85534 | 40470 ft | 527 kts | 53° |
| 2026-05-04 21:24 | -46.34211 | 168.94281 | 40461 ft | 526 kts | 54° |
| 2026-05-04 21:24 | -46.30064 | 169.03026 | 40463 ft | 527 kts | 54° |
| 2026-05-04 21:25 | -46.25916 | 169.11746 | 40470 ft | 528 kts | 54° |
| 2026-05-04 21:25 | -46.22152 | 169.20854 | 40463 ft | 528 kts | 63° |
| 2026-05-04 21:26 | -46.19146 | 169.30579 | 40464 ft | 530 kts | 66° |
| 2026-05-04 21:26 | -46.16503 | 169.40504 | 40458 ft | 531 kts | 69° |
| 2026-05-04 21:27 | -46.14084 | 169.50586 | 40470 ft | 531 kts | 71° |
| 2026-05-04 21:27 | -46.11710 | 169.60690 | 40462 ft | 531 kts | 71° |
| 2026-05-04 21:28 | -46.09350 | 169.70714 | 40464 ft | 531 kts | 71° |
| 2026-05-04 21:28 | -46.06961 | 169.80802 | 40470 ft | 532 kts | 71° |
| 2026-05-04 21:29 | -46.04562 | 169.90883 | 40458 ft | 532 kts | 71° |
| 2026-05-04 21:29 | -46.01507 | 170.00533 | 40494 ft | 530 kts | 60° |
| 2026-05-04 21:30 | -45.97678 | 170.09545 | 40472 ft | 530 kts | 56° |
| 2026-05-04 21:30 | -45.93564 | 170.18344 | 40458 ft | 530 kts | 54° |
| 2026-05-04 21:31 | -45.87297 | 170.31430 | 40472 ft | 530 kts | 54° |
| 2026-05-04 21:32 | -45.83429 | 170.39466 | 40460 ft | 529 kts | 54° |
| 2026-05-04 21:32 | -45.78981 | 170.47870 | 40469 ft | 529 kts | 50° |
| 2026-05-04 21:33 | -45.74297 | 170.56004 | 40467 ft | 528 kts | 49° |
| 2026-05-04 21:33 | -45.69517 | 170.63894 | 40460 ft | 528 kts | 47° |
| 2026-05-04 21:34 | -45.64657 | 170.71763 | 40475 ft | 528 kts | 47° |
| 2026-05-04 21:34 | -45.59780 | 170.79625 | 40462 ft | 528 kts | 47° |
| 2026-05-04 21:35 | -45.54910 | 170.87463 | 40468 ft | 528 kts | 47° |
| 2026-05-04 21:35 | -45.50046 | 170.95274 | 40471 ft | 527 kts | 47° |
| 2026-05-04 21:36 | -45.45171 | 171.03081 | 40461 ft | 527 kts | 47° |
| 2026-05-04 21:36 | -45.39982 | 171.10417 | 40417 ft | 525 kts | 37° |
| 2026-05-04 21:37 | -45.33862 | 171.16107 | 40480 ft | 525 kts | 30° |
| 2026-05-04 21:37 | -45.27571 | 171.21342 | 40464 ft | 524 kts | 29° |
| 2026-05-04 21:38 | -45.21281 | 171.26581 | 40469 ft | 524 kts | 29° |
| 2026-05-04 21:38 | -45.15050 | 171.31822 | 40475 ft | 524 kts | 29° |
| 2026-05-04 21:39 | -45.08785 | 171.37104 | 40465 ft | 524 kts | 29° |
| 2026-05-04 21:39 | -45.02517 | 171.42377 | 40476 ft | 524 kts | 29° |
| 2026-05-04 21:40 | -44.96244 | 171.47638 | 40476 ft | 524 kts | 29° |
| 2026-05-04 21:40 | -44.89973 | 171.52885 | 40469 ft | 523 kts | 29° |
| 2026-05-04 21:41 | -44.83702 | 171.58117 | 40483 ft | 523 kts | 29° |
| 2026-05-04 21:41 | -44.77434 | 171.63333 | 40475 ft | 523 kts | 29° |
| 2026-05-04 21:42 | -44.71173 | 171.68531 | 40480 ft | 523 kts | 29° |
| 2026-05-04 21:42 | -44.64916 | 171.73712 | 40485 ft | 523 kts | 29° |
| 2026-05-04 21:43 | -44.58627 | 171.78906 | 40479 ft | 523 kts | 29° |
| 2026-05-04 21:43 | -44.52364 | 171.84066 | 40491 ft | 522 kts | 29° |
| 2026-05-04 21:44 | -44.46105 | 171.89209 | 40481 ft | 522 kts | 29° |
| 2026-05-04 21:44 | -44.39884 | 171.94309 | 40487 ft | 522 kts | 29° |
| 2026-05-04 21:45 | -44.33612 | 171.99438 | 40493 ft | 522 kts | 29° |
| 2026-05-04 21:45 | -44.27343 | 172.04551 | 40482 ft | 522 kts | 29° |
| 2026-05-04 21:46 | -44.21073 | 172.09651 | 40495 ft | 522 kts | 29° |
| 2026-05-04 21:46 | -44.14766 | 172.14629 | 40486 ft | 521 kts | 26° |
| 2026-05-04 21:47 | -44.08213 | 172.18924 | 40491 ft | 520 kts | 22° |
| 2026-05-04 21:47 | -44.01553 | 172.22866 | 40495 ft | 520 kts | 21° |
| 2026-05-04 21:48 | -43.94838 | 172.26670 | 40490 ft | 519 kts | 20° |
| 2026-05-04 21:48 | -43.88186 | 172.30400 | 40495 ft | 520 kts | 20° |
| 2026-05-04 21:49 | -43.81481 | 172.34154 | 40496 ft | 520 kts | 20° |
| 2026-05-04 21:49 | -43.74777 | 172.37903 | 40489 ft | 519 kts | 20° |
| 2026-05-04 21:50 | -43.68062 | 172.41651 | 40501 ft | 520 kts | 20° |
| 2026-05-04 21:50 | -43.61354 | 172.45386 | 40491 ft | 520 kts | 20° |
| 2026-05-04 21:51 | -43.54639 | 172.49097 | 40495 ft | 520 kts | 20° |
| 2026-05-04 21:51 | -43.47902 | 172.52733 | 40499 ft | 519 kts | 20° |
| 2026-05-04 21:52 | -43.41172 | 172.56317 | 40489 ft | 519 kts | 19° |
| 2026-05-04 21:52 | -43.34455 | 172.59855 | 40497 ft | 519 kts | 19° |
| 2026-05-04 21:53 | -43.27701 | 172.63395 | 40499 ft | 520 kts | 19° |
| 2026-05-04 21:53 | -43.20957 | 172.66920 | 40489 ft | 519 kts | 19° |
| 2026-05-04 21:54 | -43.14182 | 172.70453 | 40502 ft | 520 kts | 19° |
| 2026-05-04 21:54 | -43.07413 | 172.73975 | 40493 ft | 520 kts | 19° |
| 2026-05-04 21:55 | -43.00655 | 172.77483 | 40495 ft | 520 kts | 19° |
| 2026-05-04 21:55 | -42.93928 | 172.80966 | 40504 ft | 520 kts | 19° |
| 2026-05-04 21:56 | -42.87159 | 172.84471 | 40493 ft | 520 kts | 19° |
| 2026-05-04 21:56 | -42.80400 | 172.87969 | 40503 ft | 520 kts | 19° |
| 2026-05-04 21:57 | -42.73639 | 172.91463 | 40504 ft | 520 kts | 19° |
| 2026-05-04 21:57 | -42.68046 | 172.94347 | 40496 ft | 520 kts | 19° |
| 2026-05-04 21:58 | -42.61227 | 172.97858 | 40509 ft | 520 kts | 19° |
| 2026-05-04 21:58 | -42.54468 | 173.01328 | 40506 ft | 520 kts | 19° |
| 2026-05-04 21:59 | -42.47700 | 173.04796 | 40505 ft | 520 kts | 19° |
| 2026-05-04 21:59 | -42.40909 | 173.08267 | 40517 ft | 520 kts | 19° |
| 2026-05-04 22:00 | -42.34122 | 173.11728 | 40508 ft | 520 kts | 19° |
| 2026-05-04 22:00 | -42.27361 | 173.15168 | 40517 ft | 520 kts | 19° |
| 2026-05-04 22:01 | -42.20631 | 173.18584 | 40523 ft | 520 kts | 19° |
| 2026-05-04 22:01 | -42.13858 | 173.22014 | 40515 ft | 519 kts | 19° |
| 2026-05-04 22:02 | -42.07082 | 173.25438 | 40528 ft | 520 kts | 19° |
| 2026-05-04 22:02 | -42.00308 | 173.28853 | 40527 ft | 520 kts | 19° |
| 2026-05-04 22:03 | -41.93519 | 173.32268 | 40525 ft | 520 kts | 19° |
| 2026-05-04 22:03 | -41.86736 | 173.35672 | 40538 ft | 520 kts | 19° |
| 2026-05-04 22:04 | -41.79947 | 173.39071 | 40529 ft | 520 kts | 19° |
| 2026-05-04 22:04 | -41.73168 | 173.42456 | 40536 ft | 520 kts | 19° |
| 2026-05-04 22:05 | -41.66369 | 173.45842 | 40543 ft | 520 kts | 19° |
| 2026-05-04 22:05 | -41.59624 | 173.49193 | 40534 ft | 521 kts | 19° |
| 2026-05-04 22:06 | -41.52840 | 173.52554 | 40544 ft | 520 kts | 19° |
| 2026-05-04 22:06 | -41.46051 | 173.55910 | 40544 ft | 520 kts | 19° |
| 2026-05-04 22:07 | -41.39258 | 173.59261 | 40538 ft | 520 kts | 19° |
| 2026-05-04 22:07 | -41.32470 | 173.62602 | 40551 ft | 520 kts | 19° |
| 2026-05-04 22:08 | -41.25726 | 173.65913 | 40558 ft | 519 kts | 19° |
| 2026-05-04 22:08 | -41.18934 | 173.69241 | 40564 ft | 520 kts | 19° |
| 2026-05-04 22:09 | -41.12144 | 173.72561 | 40553 ft | 520 kts | 19° |
| 2026-05-04 22:09 | -41.05357 | 173.75871 | 40566 ft | 519 kts | 19° |
| 2026-05-04 22:10 | -40.98568 | 173.79176 | 40561 ft | 520 kts | 19° |
| 2026-05-04 22:10 | -40.91763 | 173.82481 | 40560 ft | 520 kts | 19° |
| 2026-05-04 22:11 | -40.84977 | 173.85769 | 40572 ft | 519 kts | 19° |
| 2026-05-04 22:11 | -40.78233 | 173.89030 | 40495 ft | 519 kts | 19° |
| 2026-05-04 22:11 | -40.74843 | 173.90666 | 40138 ft | 512 kts | 19° |
| 2026-05-04 22:12 | -40.71553 | 173.92253 | 39926 ft | 497 kts | 19° |
| 2026-05-04 22:12 | -40.68324 | 173.93810 | 39630 ft | 486 kts | 19° |
| 2026-05-04 22:12 | -40.65156 | 173.95335 | 39354 ft | 485 kts | 20° |
| 2026-05-04 22:12 | -40.61968 | 173.96867 | 39087 ft | 491 kts | 20° |
| 2026-05-04 22:13 | -40.58743 | 173.98414 | 38821 ft | 494 kts | 20° |
| 2026-05-04 22:13 | -40.55523 | 173.99959 | 38542 ft | 488 kts | 20° |
| 2026-05-04 22:13 | -40.52389 | 174.01461 | 38264 ft | 483 kts | 20° |
| 2026-05-04 22:13 | -40.49245 | 174.02966 | 37987 ft | 481 kts | 20° |
| 2026-05-04 22:14 | -40.46099 | 174.04471 | 37713 ft | 480 kts | 20° |
| 2026-05-04 22:14 | -40.42962 | 174.05971 | 37438 ft | 478 kts | 20° |
| 2026-05-04 22:14 | -40.39850 | 174.07456 | 37162 ft | 475 kts | 20° |
| 2026-05-04 22:14 | -40.36758 | 174.08931 | 36884 ft | 471 kts | 20° |
| 2026-05-04 22:15 | -40.33696 | 174.10389 | 36608 ft | 468 kts | 20° |
| 2026-05-04 22:15 | -40.30633 | 174.11847 | 36333 ft | 466 kts | 20° |
| 2026-05-04 22:15 | -40.27589 | 174.13295 | 36056 ft | 463 kts | 20° |
| 2026-05-04 22:15 | -40.24606 | 174.14713 | 35783 ft | 460 kts | 20° |
| 2026-05-04 22:16 | -40.21571 | 174.16154 | 35503 ft | 457 kts | 20° |
| 2026-05-04 22:16 | -40.18596 | 174.17567 | 35231 ft | 454 kts | 20° |
| 2026-05-04 22:16 | -40.15683 | 174.18948 | 35039 ft | 450 kts | 20° |
| 2026-05-04 22:17 | -40.09783 | 174.21741 | 34851 ft | 452 kts | 20° |
| 2026-05-04 22:17 | -40.03789 | 174.24574 | 34680 ft | 469 kts | 20° |
| 2026-05-04 22:18 | -39.97538 | 174.27521 | 34643 ft | 486 kts | 20° |
| 2026-05-04 22:18 | -39.91045 | 174.30576 | 34625 ft | 503 kts | 20° |
| 2026-05-04 22:19 | -39.84463 | 174.33664 | 34601 ft | 503 kts | 20° |
| 2026-05-04 22:19 | -39.77889 | 174.36742 | 34591 ft | 502 kts | 20° |
| 2026-05-04 22:20 | -39.71298 | 174.39824 | 34582 ft | 503 kts | 20° |
| 2026-05-04 22:20 | -39.64763 | 174.42873 | 34573 ft | 502 kts | 20° |
| 2026-05-04 22:21 | -39.58187 | 174.45934 | 34565 ft | 502 kts | 20° |
| 2026-05-04 22:21 | -39.51608 | 174.48951 | 34551 ft | 502 kts | 18° |
| 2026-05-04 22:22 | -39.44800 | 174.50939 | 34554 ft | 502 kts | 11° |
| 2026-05-04 22:22 | -39.37888 | 174.52365 | 34546 ft | 502 kts | 8° |
| 2026-05-04 22:23 | -39.30985 | 174.53667 | 34540 ft | 501 kts | 8° |
| 2026-05-04 22:23 | -39.24114 | 174.54963 | 34533 ft | 501 kts | 8° |
| 2026-05-04 22:24 | -39.17267 | 174.56264 | 34441 ft | 488 kts | 8° |
| 2026-05-04 22:24 | -39.13956 | 174.56894 | 34353 ft | 474 kts | 8° |
| 2026-05-04 22:24 | -39.10736 | 174.57507 | 34267 ft | 461 kts | 8° |
| 2026-05-04 22:24 | -39.07620 | 174.58101 | 34145 ft | 445 kts | 8° |
| 2026-05-04 22:25 | -39.04572 | 174.58681 | 34085 ft | 446 kts | 8° |
| 2026-05-04 22:25 | -38.98377 | 174.59857 | 33942 ft | 455 kts | 8° |
| 2026-05-04 22:26 | -38.92042 | 174.61060 | 33800 ft | 462 kts | 8° |
| 2026-05-04 22:26 | -38.85697 | 174.62261 | 33642 ft | 460 kts | 8° |
| 2026-05-04 22:27 | -38.79418 | 174.63447 | 33491 ft | 457 kts | 8° |
| 2026-05-04 22:27 | -38.73124 | 174.64634 | 33189 ft | 456 kts | 8° |
| 2026-05-04 22:27 | -38.69998 | 174.65222 | 32852 ft | 453 kts | 8° |
| 2026-05-04 22:28 | -38.66889 | 174.65808 | 32439 ft | 449 kts | 7° |
| 2026-05-04 22:28 | -38.63819 | 174.66385 | 31984 ft | 444 kts | 7° |
| 2026-05-04 22:28 | -38.60773 | 174.66958 | 31506 ft | 440 kts | 7° |
| 2026-05-04 22:28 | -38.57745 | 174.67526 | 31014 ft | 436 kts | 7° |
| 2026-05-04 22:29 | -38.54753 | 174.68088 | 30518 ft | 433 kts | 7° |
| 2026-05-04 22:29 | -38.51793 | 174.68643 | 30018 ft | 428 kts | 7° |
| 2026-05-04 22:29 | -38.48862 | 174.69192 | 29521 ft | 423 kts | 7° |
| 2026-05-04 22:29 | -38.45971 | 174.69731 | 29027 ft | 419 kts | 7° |
| 2026-05-04 22:30 | -38.43080 | 174.70270 | 28536 ft | 416 kts | 7° |
| 2026-05-04 22:30 | -38.40254 | 174.70797 | 28002 ft | 416 kts | 7° |
| 2026-05-04 22:30 | -38.37362 | 174.71336 | 27400 ft | 414 kts | 8° |
| 2026-05-04 22:30 | -38.34571 | 174.71856 | 26889 ft | 407 kts | 8° |
| 2026-05-04 22:31 | -38.31763 | 174.72379 | 26410 ft | 400 kts | 8° |
| 2026-05-04 22:31 | -38.29063 | 174.72882 | 25945 ft | 395 kts | 8° |
| 2026-05-04 22:31 | -38.26343 | 174.73388 | 25479 ft | 394 kts | 8° |
| 2026-05-04 22:31 | -38.23613 | 174.73895 | 25013 ft | 398 kts | 8° |
| 2026-05-04 22:32 | -38.20872 | 174.74404 | 24535 ft | 395 kts | 8° |
| 2026-05-04 22:32 | -38.18166 | 174.74906 | 24060 ft | 392 kts | 9° |
| 2026-05-04 22:32 | -38.15477 | 174.75405 | 23591 ft | 388 kts | 9° |
| 2026-05-04 22:32 | -38.12814 | 174.75901 | 23129 ft | 386 kts | 9° |
| 2026-05-04 22:33 | -38.10168 | 174.76392 | 22667 ft | 383 kts | 9° |
| 2026-05-04 22:33 | -38.07535 | 174.76880 | 22209 ft | 381 kts | 9° |
| 2026-05-04 22:33 | -38.04920 | 174.77363 | 21754 ft | 379 kts | 9° |
| 2026-05-04 22:33 | -38.02347 | 174.77839 | 21306 ft | 376 kts | 9° |
| 2026-05-04 22:34 | -37.99747 | 174.78319 | 20851 ft | 372 kts | 9° |
| 2026-05-04 22:34 | -37.97187 | 174.78792 | 20407 ft | 369 kts | 8° |
| 2026-05-04 22:34 | -37.94694 | 174.79252 | 19973 ft | 366 kts | 8° |
| 2026-05-04 22:34 | -37.92182 | 174.79715 | 19536 ft | 363 kts | 8° |
| 2026-05-04 22:35 | -37.89698 | 174.80172 | 19104 ft | 361 kts | 8° |
| 2026-05-04 22:35 | -37.87204 | 174.80543 | 18667 ft | 360 kts | 5° |
| 2026-05-04 22:35 | -37.84710 | 174.80669 | 18242 ft | 358 kts | 2° |
| 2026-05-04 22:35 | -37.82229 | 174.80718 | 17802 ft | 354 kts | 1° |
| 2026-05-04 22:36 | -37.79785 | 174.80745 | 17148 ft | 351 kts | 1° |
| 2026-05-04 22:36 | -37.77347 | 174.80770 | 16529 ft | 348 kts | 1° |
| 2026-05-04 22:36 | -37.74938 | 174.80795 | 15965 ft | 343 kts | 1° |
| 2026-05-04 22:36 | -37.72566 | 174.80822 | 15460 ft | 337 kts | 1° |
| 2026-05-04 22:37 | -37.70255 | 174.80849 | 14998 ft | 330 kts | 1° |
| 2026-05-04 22:37 | -37.67987 | 174.80877 | 14595 ft | 323 kts | 1° |
| 2026-05-04 22:37 | -37.65749 | 174.80905 | 14216 ft | 321 kts | 1° |
| 2026-05-04 22:37 | -37.63543 | 174.80933 | 13832 ft | 317 kts | 1° |
| 2026-05-04 22:38 | -37.61331 | 174.80960 | 13435 ft | 310 kts | 2° |
| 2026-05-04 22:38 | -37.59231 | 174.81041 | 13026 ft | 304 kts | 5° |
| 2026-05-04 22:38 | -37.57169 | 174.81499 | 12691 ft | 295 kts | 12° |
| 2026-05-04 22:38 | -37.55197 | 174.82058 | 12439 ft | 286 kts | 14° |
| 2026-05-04 22:39 | -37.53290 | 174.82621 | 12187 ft | 277 kts | 14° |
| 2026-05-04 22:39 | -37.51441 | 174.83169 | 11941 ft | 269 kts | 14° |
| 2026-05-04 22:39 | -37.49635 | 174.83705 | 11721 ft | 263 kts | 14° |
| 2026-05-04 22:39 | -37.47849 | 174.84233 | 11549 ft | 267 kts | 14° |
| 2026-05-04 22:40 | -37.46022 | 174.84772 | 11369 ft | 272 kts | 14° |
| 2026-05-04 22:40 | -37.44173 | 174.85317 | 11157 ft | 271 kts | 14° |
| 2026-05-04 22:40 | -37.42373 | 174.85845 | 10942 ft | 266 kts | 14° |
| 2026-05-04 22:40 | -37.40575 | 174.86372 | 10731 ft | 266 kts | 14° |
| 2026-05-04 22:41 | -37.38735 | 174.86911 | 10501 ft | 268 kts | 14° |
| 2026-05-04 22:41 | -37.36941 | 174.87437 | 10259 ft | 267 kts | 14° |
| 2026-05-04 22:41 | -37.35139 | 174.87966 | 10003 ft | 265 kts | 14° |
| 2026-05-04 22:41 | -37.33318 | 174.88315 | 9669 ft | 268 kts | 4° |
| 2026-05-04 22:42 | -37.31494 | 174.87881 | 9498 ft | 263 kts | 349° |
| 2026-05-04 22:42 | -37.29723 | 174.87320 | 9260 ft | 265 kts | 348° |
| 2026-05-04 22:42 | -37.27915 | 174.86780 | 8982 ft | 266 kts | 348° |
| 2026-05-04 22:42 | -37.26119 | 174.86284 | 8682 ft | 264 kts | 349° |
| 2026-05-04 22:43 | -37.24347 | 174.85821 | 8426 ft | 259 kts | 350° |
| 2026-05-04 22:43 | -37.22585 | 174.85379 | 8208 ft | 255 kts | 351° |
| 2026-05-04 22:43 | -37.20835 | 174.84949 | 7985 ft | 256 kts | 351° |
| 2026-05-04 22:43 | -37.19087 | 174.84527 | 7778 ft | 252 kts | 351° |
| 2026-05-04 22:44 | -37.17410 | 174.84355 | 7446 ft | 243 kts | 2° |
| 2026-05-04 22:44 | -37.15748 | 174.84736 | 7284 ft | 246 kts | 12° |
| 2026-05-04 22:44 | -37.14055 | 174.85200 | 7030 ft | 245 kts | 14° |
| 2026-05-04 22:44 | -37.12423 | 174.85666 | 6760 ft | 238 kts | 14° |
| 2026-05-04 22:45 | -37.10869 | 174.86112 | 6501 ft | 220 kts | 14° |
| 2026-05-04 22:45 | -37.08439 | 174.87828 | 6149 ft | 187 kts | 38° |
| 2026-05-04 22:45 | -37.07471 | 174.88855 | 5987 ft | 179 kts | 40° |
| 2026-05-04 22:46 | -37.06857 | 174.89527 | 5882 ft | 176 kts | 41° |
| 2026-05-04 22:46 | -37.05646 | 174.90893 | 5666 ft | 174 kts | 44° |
| 2026-05-04 22:46 | -37.05204 | 174.91733 | 5466 ft | 179 kts | 57° |
| 2026-05-04 22:46 | -37.04780 | 174.93713 | 5374 ft | 174 kts | 72° |
| 2026-05-04 22:47 | -37.04515 | 174.94682 | 5266 ft | 173 kts | 70° |
| 2026-05-04 22:47 | -37.03997 | 174.96558 | 5058 ft | 172 kts | 69° |
| 2026-05-04 22:47 | -37.03741 | 174.97520 | 4973 ft | 171 kts | 70° |
| 2026-05-04 22:47 | -37.03361 | 174.98925 | 4868 ft | 170 kts | 70° |
| 2026-05-04 22:48 | -37.02982 | 175.00313 | 4751 ft | 171 kts | 69° |
| 2026-05-04 22:48 | -37.02597 | 175.01730 | 4634 ft | 170 kts | 70° |
| 2026-05-04 22:48 | -37.02218 | 175.03116 | 4530 ft | 170 kts | 70° |
| 2026-05-04 22:48 | -37.01835 | 175.04511 | 4437 ft | 169 kts | 70° |
| 2026-05-04 22:49 | -37.01444 | 175.05908 | 4367 ft | 169 kts | 68° |
| 2026-05-04 22:49 | -37.00777 | 175.07102 | 4199 ft | 169 kts | 51° |
| 2026-05-04 22:49 | -36.99786 | 175.07820 | 4107 ft | 168 kts | 29° |
| 2026-05-04 22:49 | -36.98622 | 175.07977 | 4032 ft | 168 kts | 6° |
| 2026-05-04 22:50 | -36.97501 | 175.07525 | 3957 ft | 170 kts | 343° |
| 2026-05-04 22:50 | -36.96617 | 175.06553 | 3895 ft | 171 kts | 321° |
| 2026-05-04 22:50 | -36.95917 | 175.05346 | 3880 ft | 174 kts | 308° |
| 2026-05-04 22:50 | -36.95572 | 175.03891 | 3726 ft | 177 kts | 288° |
| 2026-05-04 22:51 | -36.95456 | 175.02380 | 3667 ft | 178 kts | 279° |
| 2026-05-04 22:51 | -36.95382 | 175.00798 | 3394 ft | 182 kts | 274° |
| 2026-05-04 22:51 | -36.95525 | 174.99247 | 3129 ft | 181 kts | 265° |
| 2026-05-04 22:51 | -36.95833 | 174.97719 | 2884 ft | 182 kts | 257° |
| 2026-05-04 22:52 | -36.96258 | 174.96225 | 2631 ft | 182 kts | 251° |
| 2026-05-04 22:52 | -36.96715 | 174.94752 | 2379 ft | 181 kts | 249° |
| 2026-05-04 22:52 | -36.97163 | 174.93281 | 2137 ft | 181 kts | 249° |
| 2026-05-04 22:52 | -36.97594 | 174.91797 | 1894 ft | 181 kts | 250° |
| 2026-05-04 22:53 | -36.98000 | 174.90301 | 1651 ft | 181 kts | 251° |
| 2026-05-04 22:53 | -36.98388 | 174.88807 | 1414 ft | 180 kts | 251° |
| 2026-05-04 22:53 | -36.98782 | 174.87341 | 1173 ft | 178 kts | 250° |
| 2026-05-04 22:53 | -36.99125 | 174.86128 | 975 ft | 177 kts | 249° |
| 2026-05-04 22:54 | -36.99545 | 174.84661 | 738 ft | 176 kts | 249° |
| 2026-05-04 22:54 | -36.99951 | 174.83201 | 500 ft | 175 kts | 250° |
| 2026-05-04 22:54 | -37.00340 | 174.81760 | 270 ft | 175 kts | 251° |
| 2026-05-04 22:54 | -37.00724 | 174.80350 | 81 ft | 166 kts | 251° |
| 2026-05-04 22:55 | -37.01073 | 174.79080 | 37 ft | 140 kts | 251° |
| 2026-05-04 22:55 | -37.01310 | 174.78216 | 36 ft | 70 kts | 251° |
| 2026-05-04 22:55 | -37.01388 | 174.77936 | 36 ft | 17 kts | 251° |
| 2026-05-04 22:55 | -37.01367 | 174.77820 | 36 ft | 15 kts | 329° |
| 2026-05-04 22:56 | -37.01273 | 174.77776 | 36 ft | 13 kts | 10° |
| 2026-05-04 22:56 | -37.01215 | 174.77888 | 36 ft | 18 kts | 70° |
| 2026-05-04 22:56 | -37.01172 | 174.78035 | 36 ft | 19 kts | 70° |
| 2026-05-04 22:56 | -37.01139 | 174.78152 | 36 ft | 13 kts | 71° |
| 2026-05-04 22:57 | -37.01108 | 174.78267 | 36 ft | 13 kts | 71° |
| 2026-05-04 22:57 | -37.01078 | 174.78356 | 36 ft | 11 kts | 51° |
| 2026-05-04 22:57 | -37.01008 | 174.78364 | 36 ft | 11 kts | 317° |
| 2026-05-04 22:57 | -37.00993 | 174.78287 | 36 ft | 9 kts | 297° |
| 2026-05-04 22:58 | -37.00958 | 174.78226 | 36 ft | 5 kts | 307° |
| 2026-05-04 22:58 | -37.00928 | 174.78192 | 36 ft | 6 kts | 345° |
| 2026-05-04 22:58 | -37.00895 | 174.78201 | 36 ft | 3 kts | 22° |
| 2026-05-04 22:58 | -37.00877 | 174.78211 | 36 ft | 2 kts | 27° |
| 2026-05-04 22:59 | -37.00868 | 174.78218 | 36 ft | 0 kts | 31° |
| 2026-05-04 22:59 | -37.00864 | 174.78216 | 36 ft | 0 kts | 37° |